<?xml version="1.0" encoding="UTF-8" standalone="no" ?>
<gpx xmlns="http://www.topografix.com/GPX/1/1" xmlns:xsi="http://www.w3.org/2001/XMLSchema-instance" xsi:schemaLocation="http://www.topografix.com/GPX/1/1 http://www.topografix.com/GPX/1/1/gpx.xsd" version="1.1" creator="VisuGPX - https://www.visugpx.com">
  <metadata>
    <name>Etape 4 - Refugede Bostan Montriond 5 sept.2019</name>
    <desc><![CDATA[De Bostan à Samoens descente superbe. Puis par la route jusquau lac de joux plane. brouillard et terrain boueux sur les sentiers de ce versant. On évite la pointe d'Angolon que je voulais faire. Dommage. ]]></desc>
  </metadata>
  <trk>
    <name><![CDATA[10490555-Refugede Bostan Montriond 5 sept.2019]]></name>
    <extensions>
      <line xmlns="http://www.topografix.com/GPX/gpx_style/0/2">
        <color>0000FF</color>
        <width>4</width>
      </line>
    </extensions>
    <trkseg>
      <trkpt lat="46.12312" lon="6.77926">
        <ele>1757</ele>
        <time>2022-06-09T14:06:00Z</time>
      </trkpt>
      <trkpt lat="46.12309" lon="6.77928">
        <ele>1757</ele>
        <time>2022-06-09T14:06:01Z</time>
      </trkpt>
      <trkpt lat="46.12314" lon="6.77918">
        <ele>1756</ele>
        <time>2022-06-09T14:06:03Z</time>
      </trkpt>
      <trkpt lat="46.12306" lon="6.77928">
        <ele>1757</ele>
        <time>2022-06-09T14:06:05Z</time>
      </trkpt>
      <trkpt lat="46.12294" lon="6.7796">
        <ele>1761</ele>
        <time>2022-06-09T14:06:11Z</time>
      </trkpt>
      <trkpt lat="46.12282" lon="6.77974">
        <ele>1764</ele>
        <time>2022-06-09T14:06:15Z</time>
      </trkpt>
      <trkpt lat="46.1228" lon="6.77976">
        <ele>1765</ele>
        <time>2022-06-09T14:06:15Z</time>
      </trkpt>
      <trkpt lat="46.12274" lon="6.77972">
        <ele>1765</ele>
        <time>2022-06-09T14:06:17Z</time>
      </trkpt>
      <trkpt lat="46.12267" lon="6.77963">
        <ele>1765</ele>
        <time>2022-06-09T14:06:19Z</time>
      </trkpt>
      <trkpt lat="46.1227" lon="6.77971">
        <ele>1766</ele>
        <time>2022-06-09T14:06:21Z</time>
      </trkpt>
      <trkpt lat="46.12264" lon="6.77979">
        <ele>1768</ele>
        <time>2022-06-09T14:06:22Z</time>
      </trkpt>
      <trkpt lat="46.12257" lon="6.77973">
        <ele>1768</ele>
        <time>2022-06-09T14:06:24Z</time>
      </trkpt>
      <trkpt lat="46.12243" lon="6.77952">
        <ele>1768</ele>
        <time>2022-06-09T14:06:29Z</time>
      </trkpt>
      <trkpt lat="46.12237" lon="6.77938">
        <ele>1768</ele>
        <time>2022-06-09T14:06:32Z</time>
      </trkpt>
      <trkpt lat="46.12231" lon="6.77914">
        <ele>1766</ele>
        <time>2022-06-09T14:06:36Z</time>
      </trkpt>
      <trkpt lat="46.12225" lon="6.77904">
        <ele>1767</ele>
        <time>2022-06-09T14:06:38Z</time>
      </trkpt>
      <trkpt lat="46.12223" lon="6.77893">
        <ele>1766</ele>
        <time>2022-06-09T14:06:40Z</time>
      </trkpt>
      <trkpt lat="46.12211" lon="6.77866">
        <ele>1764</ele>
        <time>2022-06-09T14:06:45Z</time>
      </trkpt>
      <trkpt lat="46.12211" lon="6.77855">
        <ele>1762</ele>
        <time>2022-06-09T14:06:47Z</time>
      </trkpt>
      <trkpt lat="46.12206" lon="6.77845">
        <ele>1761</ele>
        <time>2022-06-09T14:06:49Z</time>
      </trkpt>
      <trkpt lat="46.12206" lon="6.77834">
        <ele>1758</ele>
        <time>2022-06-09T14:06:51Z</time>
      </trkpt>
      <trkpt lat="46.12197" lon="6.77807">
        <ele>1752</ele>
        <time>2022-06-09T14:06:55Z</time>
      </trkpt>
      <trkpt lat="46.12186" lon="6.77782">
        <ele>1745</ele>
        <time>2022-06-09T14:07:00Z</time>
      </trkpt>
      <trkpt lat="46.12181" lon="6.77776">
        <ele>1743</ele>
        <time>2022-06-09T14:07:02Z</time>
      </trkpt>
      <trkpt lat="46.12173" lon="6.77755">
        <ele>1736</ele>
        <time>2022-06-09T14:07:06Z</time>
      </trkpt>
      <trkpt lat="46.12167" lon="6.77723">
        <ele>1729</ele>
        <time>2022-06-09T14:07:11Z</time>
      </trkpt>
      <trkpt lat="46.12156" lon="6.77703">
        <ele>1727</ele>
        <time>2022-06-09T14:07:15Z</time>
      </trkpt>
      <trkpt lat="46.12156" lon="6.77699">
        <ele>1727</ele>
        <time>2022-06-09T14:07:16Z</time>
      </trkpt>
      <trkpt lat="46.12141" lon="6.77667">
        <ele>1722</ele>
        <time>2022-06-09T14:07:22Z</time>
      </trkpt>
      <trkpt lat="46.12134" lon="6.7766">
        <ele>1721</ele>
        <time>2022-06-09T14:07:24Z</time>
      </trkpt>
      <trkpt lat="46.1213" lon="6.77652">
        <ele>1720</ele>
        <time>2022-06-09T14:07:26Z</time>
      </trkpt>
      <trkpt lat="46.12122" lon="6.77627">
        <ele>1713</ele>
        <time>2022-06-09T14:07:30Z</time>
      </trkpt>
      <trkpt lat="46.12114" lon="6.77611">
        <ele>1708</ele>
        <time>2022-06-09T14:07:33Z</time>
      </trkpt>
      <trkpt lat="46.12114" lon="6.776">
        <ele>1704</ele>
        <time>2022-06-09T14:07:35Z</time>
      </trkpt>
      <trkpt lat="46.12101" lon="6.77558">
        <ele>1690</ele>
        <time>2022-06-09T14:07:42Z</time>
      </trkpt>
      <trkpt lat="46.12096" lon="6.77503">
        <ele>1676</ele>
        <time>2022-06-09T14:07:51Z</time>
      </trkpt>
      <trkpt lat="46.12082" lon="6.77455">
        <ele>1667</ele>
        <time>2022-06-09T14:08:00Z</time>
      </trkpt>
      <trkpt lat="46.12078" lon="6.7741">
        <ele>1662</ele>
        <time>2022-06-09T14:08:07Z</time>
      </trkpt>
      <trkpt lat="46.1208" lon="6.77409">
        <ele>1662</ele>
        <time>2022-06-09T14:08:08Z</time>
      </trkpt>
      <trkpt lat="46.12065" lon="6.77362">
        <ele>1651</ele>
        <time>2022-06-09T14:08:16Z</time>
      </trkpt>
      <trkpt lat="46.12061" lon="6.77354">
        <ele>1649</ele>
        <time>2022-06-09T14:08:18Z</time>
      </trkpt>
      <trkpt lat="46.12057" lon="6.77356">
        <ele>1649</ele>
        <time>2022-06-09T14:08:19Z</time>
      </trkpt>
      <trkpt lat="46.1206" lon="6.77357">
        <ele>1650</ele>
        <time>2022-06-09T14:08:19Z</time>
      </trkpt>
      <trkpt lat="46.12062" lon="6.77342">
        <ele>1647</ele>
        <time>2022-06-09T14:08:22Z</time>
      </trkpt>
      <trkpt lat="46.12058" lon="6.77311">
        <ele>1641</ele>
        <time>2022-06-09T14:08:27Z</time>
      </trkpt>
      <trkpt lat="46.12045" lon="6.77296">
        <ele>1637</ele>
        <time>2022-06-09T14:08:31Z</time>
      </trkpt>
      <trkpt lat="46.12038" lon="6.77295">
        <ele>1635</ele>
        <time>2022-06-09T14:08:32Z</time>
      </trkpt>
      <trkpt lat="46.12033" lon="6.77287">
        <ele>1634</ele>
        <time>2022-06-09T14:08:34Z</time>
      </trkpt>
      <trkpt lat="46.1202" lon="6.77249">
        <ele>1626</ele>
        <time>2022-06-09T14:08:41Z</time>
      </trkpt>
      <trkpt lat="46.12008" lon="6.77229">
        <ele>1621</ele>
        <time>2022-06-09T14:08:45Z</time>
      </trkpt>
      <trkpt lat="46.11989" lon="6.77208">
        <ele>1617</ele>
        <time>2022-06-09T14:08:51Z</time>
      </trkpt>
      <trkpt lat="46.11973" lon="6.77203">
        <ele>1616</ele>
        <time>2022-06-09T14:08:55Z</time>
      </trkpt>
      <trkpt lat="46.11973" lon="6.77193">
        <ele>1613</ele>
        <time>2022-06-09T14:08:56Z</time>
      </trkpt>
      <trkpt lat="46.11985" lon="6.77184">
        <ele>1612</ele>
        <time>2022-06-09T14:09:00Z</time>
      </trkpt>
      <trkpt lat="46.11984" lon="6.77182">
        <ele>1612</ele>
        <time>2022-06-09T14:09:00Z</time>
      </trkpt>
      <trkpt lat="46.11977" lon="6.77177">
        <ele>1610</ele>
        <time>2022-06-09T14:09:02Z</time>
      </trkpt>
      <trkpt lat="46.11961" lon="6.77158">
        <ele>1605</ele>
        <time>2022-06-09T14:09:07Z</time>
      </trkpt>
      <trkpt lat="46.11956" lon="6.77161">
        <ele>1605</ele>
        <time>2022-06-09T14:09:08Z</time>
      </trkpt>
      <trkpt lat="46.11944" lon="6.77155">
        <ele>1603</ele>
        <time>2022-06-09T14:09:11Z</time>
      </trkpt>
      <trkpt lat="46.11944" lon="6.77141">
        <ele>1600</ele>
        <time>2022-06-09T14:09:13Z</time>
      </trkpt>
      <trkpt lat="46.11931" lon="6.77127">
        <ele>1595</ele>
        <time>2022-06-09T14:09:17Z</time>
      </trkpt>
      <trkpt lat="46.11929" lon="6.77109">
        <ele>1591</ele>
        <time>2022-06-09T14:09:20Z</time>
      </trkpt>
      <trkpt lat="46.11934" lon="6.77097">
        <ele>1589</ele>
        <time>2022-06-09T14:09:22Z</time>
      </trkpt>
      <trkpt lat="46.11933" lon="6.77095">
        <ele>1588</ele>
        <time>2022-06-09T14:09:23Z</time>
      </trkpt>
      <trkpt lat="46.1193" lon="6.77099">
        <ele>1589</ele>
        <time>2022-06-09T14:09:23Z</time>
      </trkpt>
      <trkpt lat="46.11926" lon="6.77096">
        <ele>1587</ele>
        <time>2022-06-09T14:09:25Z</time>
      </trkpt>
      <trkpt lat="46.11931" lon="6.77098">
        <ele>1589</ele>
        <time>2022-06-09T14:09:26Z</time>
      </trkpt>
      <trkpt lat="46.1194" lon="6.77054">
        <ele>1582</ele>
        <time>2022-06-09T14:09:33Z</time>
      </trkpt>
      <trkpt lat="46.11924" lon="6.77019">
        <ele>1575</ele>
        <time>2022-06-09T14:09:40Z</time>
      </trkpt>
      <trkpt lat="46.11922" lon="6.7701">
        <ele>1573</ele>
        <time>2022-06-09T14:09:41Z</time>
      </trkpt>
      <trkpt lat="46.11924" lon="6.76975">
        <ele>1568</ele>
        <time>2022-06-09T14:09:47Z</time>
      </trkpt>
      <trkpt lat="46.11908" lon="6.76919">
        <ele>1556</ele>
        <time>2022-06-09T14:09:57Z</time>
      </trkpt>
      <trkpt lat="46.11889" lon="6.76928">
        <ele>1554</ele>
        <time>2022-06-09T14:10:02Z</time>
      </trkpt>
      <trkpt lat="46.11884" lon="6.76926">
        <ele>1552</ele>
        <time>2022-06-09T14:10:03Z</time>
      </trkpt>
      <trkpt lat="46.11875" lon="6.76929">
        <ele>1551</ele>
        <time>2022-06-09T14:10:05Z</time>
      </trkpt>
      <trkpt lat="46.11868" lon="6.76921">
        <ele>1548</ele>
        <time>2022-06-09T14:10:07Z</time>
      </trkpt>
      <trkpt lat="46.11861" lon="6.76921">
        <ele>1546</ele>
        <time>2022-06-09T14:10:09Z</time>
      </trkpt>
      <trkpt lat="46.11844" lon="6.76913">
        <ele>1541</ele>
        <time>2022-06-09T14:10:13Z</time>
      </trkpt>
      <trkpt lat="46.11828" lon="6.76914">
        <ele>1540</ele>
        <time>2022-06-09T14:10:17Z</time>
      </trkpt>
      <trkpt lat="46.11808" lon="6.76882">
        <ele>1536</ele>
        <time>2022-06-09T14:10:24Z</time>
      </trkpt>
      <trkpt lat="46.11789" lon="6.76858">
        <ele>1531</ele>
        <time>2022-06-09T14:10:30Z</time>
      </trkpt>
      <trkpt lat="46.11785" lon="6.76843">
        <ele>1527</ele>
        <time>2022-06-09T14:10:32Z</time>
      </trkpt>
      <trkpt lat="46.11771" lon="6.76829">
        <ele>1523</ele>
        <time>2022-06-09T14:10:36Z</time>
      </trkpt>
      <trkpt lat="46.11773" lon="6.76823">
        <ele>1522</ele>
        <time>2022-06-09T14:10:37Z</time>
      </trkpt>
      <trkpt lat="46.11764" lon="6.76813">
        <ele>1519</ele>
        <time>2022-06-09T14:10:40Z</time>
      </trkpt>
      <trkpt lat="46.11752" lon="6.76755">
        <ele>1502</ele>
        <time>2022-06-09T14:10:50Z</time>
      </trkpt>
      <trkpt lat="46.11756" lon="6.76697">
        <ele>1492</ele>
        <time>2022-06-09T14:10:59Z</time>
      </trkpt>
      <trkpt lat="46.11755" lon="6.76661">
        <ele>1486</ele>
        <time>2022-06-09T14:11:05Z</time>
      </trkpt>
      <trkpt lat="46.11757" lon="6.76654">
        <ele>1486</ele>
        <time>2022-06-09T14:11:06Z</time>
      </trkpt>
      <trkpt lat="46.11753" lon="6.76653">
        <ele>1485</ele>
        <time>2022-06-09T14:11:07Z</time>
      </trkpt>
      <trkpt lat="46.11748" lon="6.76645">
        <ele>1483</ele>
        <time>2022-06-09T14:11:09Z</time>
      </trkpt>
      <trkpt lat="46.11749" lon="6.76633">
        <ele>1482</ele>
        <time>2022-06-09T14:11:11Z</time>
      </trkpt>
      <trkpt lat="46.11761" lon="6.76607">
        <ele>1483</ele>
        <time>2022-06-09T14:11:16Z</time>
      </trkpt>
      <trkpt lat="46.11758" lon="6.76586">
        <ele>1480</ele>
        <time>2022-06-09T14:11:19Z</time>
      </trkpt>
      <trkpt lat="46.1176" lon="6.76574">
        <ele>1480</ele>
        <time>2022-06-09T14:11:21Z</time>
      </trkpt>
      <trkpt lat="46.11747" lon="6.76554">
        <ele>1475</ele>
        <time>2022-06-09T14:11:26Z</time>
      </trkpt>
      <trkpt lat="46.11737" lon="6.76521">
        <ele>1470</ele>
        <time>2022-06-09T14:11:32Z</time>
      </trkpt>
      <trkpt lat="46.11736" lon="6.76503">
        <ele>1468</ele>
        <time>2022-06-09T14:11:34Z</time>
      </trkpt>
      <trkpt lat="46.1172" lon="6.76483">
        <ele>1462</ele>
        <time>2022-06-09T14:11:39Z</time>
      </trkpt>
      <trkpt lat="46.11715" lon="6.76465">
        <ele>1458</ele>
        <time>2022-06-09T14:11:43Z</time>
      </trkpt>
      <trkpt lat="46.11714" lon="6.76437">
        <ele>1455</ele>
        <time>2022-06-09T14:11:47Z</time>
      </trkpt>
      <trkpt lat="46.11711" lon="6.76431">
        <ele>1453</ele>
        <time>2022-06-09T14:11:48Z</time>
      </trkpt>
      <trkpt lat="46.1171" lon="6.7642">
        <ele>1452</ele>
        <time>2022-06-09T14:11:50Z</time>
      </trkpt>
      <trkpt lat="46.11714" lon="6.76402">
        <ele>1450</ele>
        <time>2022-06-09T14:11:53Z</time>
      </trkpt>
      <trkpt lat="46.11707" lon="6.76394">
        <ele>1447</ele>
        <time>2022-06-09T14:11:55Z</time>
      </trkpt>
      <trkpt lat="46.11702" lon="6.76383">
        <ele>1445</ele>
        <time>2022-06-09T14:11:57Z</time>
      </trkpt>
      <trkpt lat="46.11702" lon="6.76365">
        <ele>1442</ele>
        <time>2022-06-09T14:12:00Z</time>
      </trkpt>
      <trkpt lat="46.11691" lon="6.76352">
        <ele>1439</ele>
        <time>2022-06-09T14:12:04Z</time>
      </trkpt>
      <trkpt lat="46.11689" lon="6.76335">
        <ele>1437</ele>
        <time>2022-06-09T14:12:06Z</time>
      </trkpt>
      <trkpt lat="46.11682" lon="6.76318">
        <ele>1434</ele>
        <time>2022-06-09T14:12:10Z</time>
      </trkpt>
      <trkpt lat="46.11671" lon="6.76278">
        <ele>1428</ele>
        <time>2022-06-09T14:12:17Z</time>
      </trkpt>
      <trkpt lat="46.11656" lon="6.7632">
        <ele>1432</ele>
        <time>2022-06-09T14:12:24Z</time>
      </trkpt>
      <trkpt lat="46.11647" lon="6.76332">
        <ele>1432</ele>
        <time>2022-06-09T14:12:27Z</time>
      </trkpt>
      <trkpt lat="46.11644" lon="6.76344">
        <ele>1433</ele>
        <time>2022-06-09T14:12:29Z</time>
      </trkpt>
      <trkpt lat="46.1163" lon="6.7632">
        <ele>1426</ele>
        <time>2022-06-09T14:12:34Z</time>
      </trkpt>
      <trkpt lat="46.11622" lon="6.76296">
        <ele>1421</ele>
        <time>2022-06-09T14:12:39Z</time>
      </trkpt>
      <trkpt lat="46.11612" lon="6.76293">
        <ele>1418</ele>
        <time>2022-06-09T14:12:41Z</time>
      </trkpt>
      <trkpt lat="46.11593" lon="6.76266">
        <ele>1409</ele>
        <time>2022-06-09T14:12:47Z</time>
      </trkpt>
      <trkpt lat="46.11589" lon="6.76227">
        <ele>1400</ele>
        <time>2022-06-09T14:12:54Z</time>
      </trkpt>
      <trkpt lat="46.11586" lon="6.76223">
        <ele>1398</ele>
        <time>2022-06-09T14:12:54Z</time>
      </trkpt>
      <trkpt lat="46.11587" lon="6.76193">
        <ele>1391</ele>
        <time>2022-06-09T14:12:59Z</time>
      </trkpt>
      <trkpt lat="46.11581" lon="6.76189">
        <ele>1390</ele>
        <time>2022-06-09T14:13:01Z</time>
      </trkpt>
      <trkpt lat="46.11577" lon="6.76173">
        <ele>1386</ele>
        <time>2022-06-09T14:13:04Z</time>
      </trkpt>
      <trkpt lat="46.11555" lon="6.76136">
        <ele>1380</ele>
        <time>2022-06-09T14:13:12Z</time>
      </trkpt>
      <trkpt lat="46.11545" lon="6.76083">
        <ele>1370</ele>
        <time>2022-06-09T14:13:20Z</time>
      </trkpt>
      <trkpt lat="46.11546" lon="6.76069">
        <ele>1367</ele>
        <time>2022-06-09T14:13:23Z</time>
      </trkpt>
      <trkpt lat="46.11544" lon="6.76072">
        <ele>1368</ele>
        <time>2022-06-09T14:13:23Z</time>
      </trkpt>
      <trkpt lat="46.11548" lon="6.76081">
        <ele>1370</ele>
        <time>2022-06-09T14:13:25Z</time>
      </trkpt>
      <trkpt lat="46.11548" lon="6.76069">
        <ele>1368</ele>
        <time>2022-06-09T14:13:27Z</time>
      </trkpt>
      <trkpt lat="46.11541" lon="6.7601">
        <ele>1354</ele>
        <time>2022-06-09T14:13:37Z</time>
      </trkpt>
      <trkpt lat="46.11531" lon="6.75965">
        <ele>1342</ele>
        <time>2022-06-09T14:13:44Z</time>
      </trkpt>
      <trkpt lat="46.11532" lon="6.75916">
        <ele>1332</ele>
        <time>2022-06-09T14:13:52Z</time>
      </trkpt>
      <trkpt lat="46.11524" lon="6.75902">
        <ele>1327</ele>
        <time>2022-06-09T14:13:55Z</time>
      </trkpt>
      <trkpt lat="46.1151" lon="6.75821">
        <ele>1308</ele>
        <time>2022-06-09T14:14:09Z</time>
      </trkpt>
      <trkpt lat="46.11505" lon="6.75812">
        <ele>1305</ele>
        <time>2022-06-09T14:14:11Z</time>
      </trkpt>
      <trkpt lat="46.11504" lon="6.75805">
        <ele>1303</ele>
        <time>2022-06-09T14:14:12Z</time>
      </trkpt>
      <trkpt lat="46.11493" lon="6.75787">
        <ele>1299</ele>
        <time>2022-06-09T14:14:16Z</time>
      </trkpt>
      <trkpt lat="46.11494" lon="6.7578">
        <ele>1296</ele>
        <time>2022-06-09T14:14:17Z</time>
      </trkpt>
      <trkpt lat="46.11504" lon="6.75782">
        <ele>1296</ele>
        <time>2022-06-09T14:14:19Z</time>
      </trkpt>
      <trkpt lat="46.11491" lon="6.75778">
        <ele>1296</ele>
        <time>2022-06-09T14:14:22Z</time>
      </trkpt>
      <trkpt lat="46.11488" lon="6.75775">
        <ele>1295</ele>
        <time>2022-06-09T14:14:23Z</time>
      </trkpt>
      <trkpt lat="46.11479" lon="6.7576">
        <ele>1291</ele>
        <time>2022-06-09T14:14:26Z</time>
      </trkpt>
      <trkpt lat="46.11478" lon="6.75746">
        <ele>1287</ele>
        <time>2022-06-09T14:14:29Z</time>
      </trkpt>
      <trkpt lat="46.11471" lon="6.75738">
        <ele>1285</ele>
        <time>2022-06-09T14:14:31Z</time>
      </trkpt>
      <trkpt lat="46.1148" lon="6.75716">
        <ele>1277</ele>
        <time>2022-06-09T14:14:35Z</time>
      </trkpt>
      <trkpt lat="46.11475" lon="6.75707">
        <ele>1275</ele>
        <time>2022-06-09T14:14:37Z</time>
      </trkpt>
      <trkpt lat="46.11475" lon="6.75698">
        <ele>1272</ele>
        <time>2022-06-09T14:14:38Z</time>
      </trkpt>
      <trkpt lat="46.11485" lon="6.75696">
        <ele>1270</ele>
        <time>2022-06-09T14:14:41Z</time>
      </trkpt>
      <trkpt lat="46.11483" lon="6.75684">
        <ele>1267</ele>
        <time>2022-06-09T14:14:43Z</time>
      </trkpt>
      <trkpt lat="46.11479" lon="6.75677">
        <ele>1265</ele>
        <time>2022-06-09T14:14:44Z</time>
      </trkpt>
      <trkpt lat="46.11479" lon="6.75668">
        <ele>1262</ele>
        <time>2022-06-09T14:14:45Z</time>
      </trkpt>
      <trkpt lat="46.11483" lon="6.75666">
        <ele>1261</ele>
        <time>2022-06-09T14:14:46Z</time>
      </trkpt>
      <trkpt lat="46.11482" lon="6.75656">
        <ele>1257</ele>
        <time>2022-06-09T14:14:48Z</time>
      </trkpt>
      <trkpt lat="46.1146" lon="6.7563">
        <ele>1248</ele>
        <time>2022-06-09T14:14:55Z</time>
      </trkpt>
      <trkpt lat="46.11439" lon="6.75611">
        <ele>1243</ele>
        <time>2022-06-09T14:15:01Z</time>
      </trkpt>
      <trkpt lat="46.11432" lon="6.75609">
        <ele>1243</ele>
        <time>2022-06-09T14:15:02Z</time>
      </trkpt>
      <trkpt lat="46.11429" lon="6.75616">
        <ele>1246</ele>
        <time>2022-06-09T14:15:04Z</time>
      </trkpt>
      <trkpt lat="46.11428" lon="6.75613">
        <ele>1245</ele>
        <time>2022-06-09T14:15:04Z</time>
      </trkpt>
      <trkpt lat="46.11418" lon="6.75617">
        <ele>1247</ele>
        <time>2022-06-09T14:15:07Z</time>
      </trkpt>
      <trkpt lat="46.11422" lon="6.75612">
        <ele>1245</ele>
        <time>2022-06-09T14:15:08Z</time>
      </trkpt>
      <trkpt lat="46.1142" lon="6.75603">
        <ele>1242</ele>
        <time>2022-06-09T14:15:09Z</time>
      </trkpt>
      <trkpt lat="46.11412" lon="6.75603">
        <ele>1243</ele>
        <time>2022-06-09T14:15:11Z</time>
      </trkpt>
      <trkpt lat="46.11384" lon="6.75592">
        <ele>1244</ele>
        <time>2022-06-09T14:15:18Z</time>
      </trkpt>
      <trkpt lat="46.1136" lon="6.7557">
        <ele>1241</ele>
        <time>2022-06-09T14:15:25Z</time>
      </trkpt>
      <trkpt lat="46.11328" lon="6.75547">
        <ele>1239</ele>
        <time>2022-06-09T14:15:33Z</time>
      </trkpt>
      <trkpt lat="46.11303" lon="6.75513">
        <ele>1234</ele>
        <time>2022-06-09T14:15:41Z</time>
      </trkpt>
      <trkpt lat="46.11287" lon="6.75498">
        <ele>1234</ele>
        <time>2022-06-09T14:15:45Z</time>
      </trkpt>
      <trkpt lat="46.11275" lon="6.75478">
        <ele>1230</ele>
        <time>2022-06-09T14:15:50Z</time>
      </trkpt>
      <trkpt lat="46.11238" lon="6.75448">
        <ele>1231</ele>
        <time>2022-06-09T14:16:00Z</time>
      </trkpt>
      <trkpt lat="46.11227" lon="6.75422">
        <ele>1226</ele>
        <time>2022-06-09T14:16:05Z</time>
      </trkpt>
      <trkpt lat="46.1122" lon="6.75393">
        <ele>1218</ele>
        <time>2022-06-09T14:16:09Z</time>
      </trkpt>
      <trkpt lat="46.1122" lon="6.75379">
        <ele>1213</ele>
        <time>2022-06-09T14:16:12Z</time>
      </trkpt>
      <trkpt lat="46.11214" lon="6.7536">
        <ele>1209</ele>
        <time>2022-06-09T14:16:15Z</time>
      </trkpt>
      <trkpt lat="46.11198" lon="6.75327">
        <ele>1203</ele>
        <time>2022-06-09T14:16:22Z</time>
      </trkpt>
      <trkpt lat="46.11197" lon="6.75319">
        <ele>1201</ele>
        <time>2022-06-09T14:16:23Z</time>
      </trkpt>
      <trkpt lat="46.11204" lon="6.75321">
        <ele>1199</ele>
        <time>2022-06-09T14:16:25Z</time>
      </trkpt>
      <trkpt lat="46.11212" lon="6.7533">
        <ele>1199</ele>
        <time>2022-06-09T14:16:27Z</time>
      </trkpt>
      <trkpt lat="46.11225" lon="6.75334">
        <ele>1195</ele>
        <time>2022-06-09T14:16:30Z</time>
      </trkpt>
      <trkpt lat="46.11253" lon="6.75352">
        <ele>1191</ele>
        <time>2022-06-09T14:16:37Z</time>
      </trkpt>
      <trkpt lat="46.11265" lon="6.75353">
        <ele>1189</ele>
        <time>2022-06-09T14:16:40Z</time>
      </trkpt>
      <trkpt lat="46.11269" lon="6.75358">
        <ele>1190</ele>
        <time>2022-06-09T14:16:41Z</time>
      </trkpt>
      <trkpt lat="46.11273" lon="6.75356">
        <ele>1188</ele>
        <time>2022-06-09T14:16:42Z</time>
      </trkpt>
      <trkpt lat="46.11271" lon="6.75353">
        <ele>1187</ele>
        <time>2022-06-09T14:16:43Z</time>
      </trkpt>
      <trkpt lat="46.11299" lon="6.75361">
        <ele>1184</ele>
        <time>2022-06-09T14:16:50Z</time>
      </trkpt>
      <trkpt lat="46.113" lon="6.75358">
        <ele>1183</ele>
        <time>2022-06-09T14:16:50Z</time>
      </trkpt>
      <trkpt lat="46.1129" lon="6.7534">
        <ele>1179</ele>
        <time>2022-06-09T14:16:54Z</time>
      </trkpt>
      <trkpt lat="46.1129" lon="6.75334">
        <ele>1177</ele>
        <time>2022-06-09T14:16:55Z</time>
      </trkpt>
      <trkpt lat="46.1128" lon="6.75309">
        <ele>1173</ele>
        <time>2022-06-09T14:17:00Z</time>
      </trkpt>
      <trkpt lat="46.11272" lon="6.75266">
        <ele>1163</ele>
        <time>2022-06-09T14:17:07Z</time>
      </trkpt>
      <trkpt lat="46.1126" lon="6.75237">
        <ele>1156</ele>
        <time>2022-06-09T14:17:12Z</time>
      </trkpt>
      <trkpt lat="46.11253" lon="6.75208">
        <ele>1148</ele>
        <time>2022-06-09T14:17:17Z</time>
      </trkpt>
      <trkpt lat="46.11211" lon="6.75145">
        <ele>1141</ele>
        <time>2022-06-09T14:17:31Z</time>
      </trkpt>
      <trkpt lat="46.11196" lon="6.75106">
        <ele>1134</ele>
        <time>2022-06-09T14:17:39Z</time>
      </trkpt>
      <trkpt lat="46.11178" lon="6.75086">
        <ele>1131</ele>
        <time>2022-06-09T14:17:44Z</time>
      </trkpt>
      <trkpt lat="46.11158" lon="6.75055">
        <ele>1127</ele>
        <time>2022-06-09T14:17:51Z</time>
      </trkpt>
      <trkpt lat="46.1113" lon="6.75041">
        <ele>1131</ele>
        <time>2022-06-09T14:17:58Z</time>
      </trkpt>
      <trkpt lat="46.11152" lon="6.75053">
        <ele>1128</ele>
        <time>2022-06-09T14:18:03Z</time>
      </trkpt>
      <trkpt lat="46.11176" lon="6.75091">
        <ele>1133</ele>
        <time>2022-06-09T14:18:11Z</time>
      </trkpt>
      <trkpt lat="46.11184" lon="6.75098">
        <ele>1134</ele>
        <time>2022-06-09T14:18:14Z</time>
      </trkpt>
      <trkpt lat="46.1116" lon="6.75067">
        <ele>1130</ele>
        <time>2022-06-09T14:18:21Z</time>
      </trkpt>
      <trkpt lat="46.11166" lon="6.75058">
        <ele>1125</ele>
        <time>2022-06-09T14:18:23Z</time>
      </trkpt>
      <trkpt lat="46.11177" lon="6.75052">
        <ele>1123</ele>
        <time>2022-06-09T14:18:26Z</time>
      </trkpt>
      <trkpt lat="46.1117" lon="6.75018">
        <ele>1114</ele>
        <time>2022-06-09T14:18:32Z</time>
      </trkpt>
      <trkpt lat="46.11168" lon="6.74996">
        <ele>1108</ele>
        <time>2022-06-09T14:18:35Z</time>
      </trkpt>
      <trkpt lat="46.11169" lon="6.74948">
        <ele>1097</ele>
        <time>2022-06-09T14:18:43Z</time>
      </trkpt>
      <trkpt lat="46.11167" lon="6.74951">
        <ele>1097</ele>
        <time>2022-06-09T14:18:44Z</time>
      </trkpt>
      <trkpt lat="46.11172" lon="6.7495">
        <ele>1098</ele>
        <time>2022-06-09T14:18:45Z</time>
      </trkpt>
      <trkpt lat="46.11177" lon="6.74945">
        <ele>1097</ele>
        <time>2022-06-09T14:18:46Z</time>
      </trkpt>
      <trkpt lat="46.11184" lon="6.74947">
        <ele>1098</ele>
        <time>2022-06-09T14:18:48Z</time>
      </trkpt>
      <trkpt lat="46.11212" lon="6.74942">
        <ele>1101</ele>
        <time>2022-06-09T14:18:55Z</time>
      </trkpt>
      <trkpt lat="46.11228" lon="6.74954">
        <ele>1105</ele>
        <time>2022-06-09T14:18:59Z</time>
      </trkpt>
      <trkpt lat="46.11247" lon="6.75006">
        <ele>1113</ele>
        <time>2022-06-09T14:19:08Z</time>
      </trkpt>
      <trkpt lat="46.11255" lon="6.75019">
        <ele>1116</ele>
        <time>2022-06-09T14:19:11Z</time>
      </trkpt>
      <trkpt lat="46.11263" lon="6.75015">
        <ele>1117</ele>
        <time>2022-06-09T14:19:13Z</time>
      </trkpt>
      <trkpt lat="46.11266" lon="6.75005">
        <ele>1117</ele>
        <time>2022-06-09T14:19:15Z</time>
      </trkpt>
      <trkpt lat="46.11265" lon="6.74973">
        <ele>1112</ele>
        <time>2022-06-09T14:19:20Z</time>
      </trkpt>
      <trkpt lat="46.11277" lon="6.74837">
        <ele>1092</ele>
        <time>2022-06-09T14:19:42Z</time>
      </trkpt>
      <trkpt lat="46.11275" lon="6.74816">
        <ele>1089</ele>
        <time>2022-06-09T14:19:46Z</time>
      </trkpt>
      <trkpt lat="46.11268" lon="6.74805">
        <ele>1086</ele>
        <time>2022-06-09T14:19:48Z</time>
      </trkpt>
      <trkpt lat="46.11256" lon="6.74794">
        <ele>1082</ele>
        <time>2022-06-09T14:19:51Z</time>
      </trkpt>
      <trkpt lat="46.11252" lon="6.74799">
        <ele>1081</ele>
        <time>2022-06-09T14:19:53Z</time>
      </trkpt>
      <trkpt lat="46.1125" lon="6.74813">
        <ele>1083</ele>
        <time>2022-06-09T14:19:55Z</time>
      </trkpt>
      <trkpt lat="46.11242" lon="6.74831">
        <ele>1084</ele>
        <time>2022-06-09T14:19:58Z</time>
      </trkpt>
      <trkpt lat="46.11221" lon="6.74846">
        <ele>1083</ele>
        <time>2022-06-09T14:20:04Z</time>
      </trkpt>
      <trkpt lat="46.11208" lon="6.74838">
        <ele>1079</ele>
        <time>2022-06-09T14:20:07Z</time>
      </trkpt>
      <trkpt lat="46.11195" lon="6.74817">
        <ele>1073</ele>
        <time>2022-06-09T14:20:12Z</time>
      </trkpt>
      <trkpt lat="46.11167" lon="6.74781">
        <ele>1063</ele>
        <time>2022-06-09T14:20:21Z</time>
      </trkpt>
      <trkpt lat="46.11154" lon="6.74754">
        <ele>1060</ele>
        <time>2022-06-09T14:20:26Z</time>
      </trkpt>
      <trkpt lat="46.11118" lon="6.74693">
        <ele>1054</ele>
        <time>2022-06-09T14:20:39Z</time>
      </trkpt>
      <trkpt lat="46.11086" lon="6.74675">
        <ele>1050</ele>
        <time>2022-06-09T14:20:47Z</time>
      </trkpt>
      <trkpt lat="46.1103" lon="6.74608">
        <ele>1043</ele>
        <time>2022-06-09T14:21:04Z</time>
      </trkpt>
      <trkpt lat="46.11021" lon="6.74596">
        <ele>1041</ele>
        <time>2022-06-09T14:21:07Z</time>
      </trkpt>
      <trkpt lat="46.11013" lon="6.74577">
        <ele>1040</ele>
        <time>2022-06-09T14:21:10Z</time>
      </trkpt>
      <trkpt lat="46.11014" lon="6.74574">
        <ele>1040</ele>
        <time>2022-06-09T14:21:11Z</time>
      </trkpt>
      <trkpt lat="46.10977" lon="6.74524">
        <ele>1037</ele>
        <time>2022-06-09T14:21:23Z</time>
      </trkpt>
      <trkpt lat="46.10903" lon="6.74467">
        <ele>1031</ele>
        <time>2022-06-09T14:21:42Z</time>
      </trkpt>
      <trkpt lat="46.10888" lon="6.74464">
        <ele>1029</ele>
        <time>2022-06-09T14:21:46Z</time>
      </trkpt>
      <trkpt lat="46.10861" lon="6.74469">
        <ele>1026</ele>
        <time>2022-06-09T14:21:52Z</time>
      </trkpt>
      <trkpt lat="46.10834" lon="6.74494">
        <ele>1027</ele>
        <time>2022-06-09T14:22:00Z</time>
      </trkpt>
      <trkpt lat="46.10826" lon="6.74497">
        <ele>1027</ele>
        <time>2022-06-09T14:22:02Z</time>
      </trkpt>
      <trkpt lat="46.10786" lon="6.74496">
        <ele>1023</ele>
        <time>2022-06-09T14:22:11Z</time>
      </trkpt>
      <trkpt lat="46.10759" lon="6.74491">
        <ele>1019</ele>
        <time>2022-06-09T14:22:17Z</time>
      </trkpt>
      <trkpt lat="46.10741" lon="6.7448">
        <ele>1017</ele>
        <time>2022-06-09T14:22:22Z</time>
      </trkpt>
      <trkpt lat="46.10723" lon="6.74457">
        <ele>1013</ele>
        <time>2022-06-09T14:22:27Z</time>
      </trkpt>
      <trkpt lat="46.10716" lon="6.74444">
        <ele>1011</ele>
        <time>2022-06-09T14:22:30Z</time>
      </trkpt>
      <trkpt lat="46.10726" lon="6.74431">
        <ele>1008</ele>
        <time>2022-06-09T14:22:33Z</time>
      </trkpt>
      <trkpt lat="46.10726" lon="6.74426">
        <ele>1007</ele>
        <time>2022-06-09T14:22:34Z</time>
      </trkpt>
      <trkpt lat="46.10718" lon="6.74426">
        <ele>1007</ele>
        <time>2022-06-09T14:22:36Z</time>
      </trkpt>
      <trkpt lat="46.1071" lon="6.74413">
        <ele>1005</ele>
        <time>2022-06-09T14:22:39Z</time>
      </trkpt>
      <trkpt lat="46.10695" lon="6.74408">
        <ele>1005</ele>
        <time>2022-06-09T14:22:42Z</time>
      </trkpt>
      <trkpt lat="46.10689" lon="6.74399">
        <ele>1004</ele>
        <time>2022-06-09T14:22:44Z</time>
      </trkpt>
      <trkpt lat="46.10682" lon="6.74401">
        <ele>1004</ele>
        <time>2022-06-09T14:22:46Z</time>
      </trkpt>
      <trkpt lat="46.10615" lon="6.74382">
        <ele>999</ele>
        <time>2022-06-09T14:23:02Z</time>
      </trkpt>
      <trkpt lat="46.10599" lon="6.74375">
        <ele>996</ele>
        <time>2022-06-09T14:23:06Z</time>
      </trkpt>
      <trkpt lat="46.10589" lon="6.74365">
        <ele>993</ele>
        <time>2022-06-09T14:23:09Z</time>
      </trkpt>
      <trkpt lat="46.10577" lon="6.74364">
        <ele>991</ele>
        <time>2022-06-09T14:23:12Z</time>
      </trkpt>
      <trkpt lat="46.10571" lon="6.74367">
        <ele>990</ele>
        <time>2022-06-09T14:23:13Z</time>
      </trkpt>
      <trkpt lat="46.10567" lon="6.74365">
        <ele>989</ele>
        <time>2022-06-09T14:23:14Z</time>
      </trkpt>
      <trkpt lat="46.10543" lon="6.74364">
        <ele>984</ele>
        <time>2022-06-09T14:23:20Z</time>
      </trkpt>
      <trkpt lat="46.10537" lon="6.74369">
        <ele>984</ele>
        <time>2022-06-09T14:23:21Z</time>
      </trkpt>
      <trkpt lat="46.10513" lon="6.74375">
        <ele>981</ele>
        <time>2022-06-09T14:23:27Z</time>
      </trkpt>
      <trkpt lat="46.10501" lon="6.74375">
        <ele>979</ele>
        <time>2022-06-09T14:23:30Z</time>
      </trkpt>
      <trkpt lat="46.10445" lon="6.74363">
        <ele>961</ele>
        <time>2022-06-09T14:23:43Z</time>
      </trkpt>
      <trkpt lat="46.10431" lon="6.74364">
        <ele>957</ele>
        <time>2022-06-09T14:23:46Z</time>
      </trkpt>
      <trkpt lat="46.10399" lon="6.7435">
        <ele>943</ele>
        <time>2022-06-09T14:23:54Z</time>
      </trkpt>
      <trkpt lat="46.10394" lon="6.74329">
        <ele>938</ele>
        <time>2022-06-09T14:23:58Z</time>
      </trkpt>
      <trkpt lat="46.10394" lon="6.74306">
        <ele>936</ele>
        <time>2022-06-09T14:24:01Z</time>
      </trkpt>
      <trkpt lat="46.10392" lon="6.74305">
        <ele>935</ele>
        <time>2022-06-09T14:24:02Z</time>
      </trkpt>
      <trkpt lat="46.10393" lon="6.743">
        <ele>935</ele>
        <time>2022-06-09T14:24:03Z</time>
      </trkpt>
      <trkpt lat="46.10396" lon="6.74298">
        <ele>936</ele>
        <time>2022-06-09T14:24:03Z</time>
      </trkpt>
      <trkpt lat="46.10393" lon="6.74297">
        <ele>935</ele>
        <time>2022-06-09T14:24:04Z</time>
      </trkpt>
      <trkpt lat="46.10398" lon="6.74292">
        <ele>936</ele>
        <time>2022-06-09T14:24:06Z</time>
      </trkpt>
      <trkpt lat="46.10379" lon="6.74287">
        <ele>931</ele>
        <time>2022-06-09T14:24:10Z</time>
      </trkpt>
      <trkpt lat="46.10369" lon="6.74288">
        <ele>928</ele>
        <time>2022-06-09T14:24:12Z</time>
      </trkpt>
      <trkpt lat="46.10364" lon="6.74292">
        <ele>927</ele>
        <time>2022-06-09T14:24:14Z</time>
      </trkpt>
      <trkpt lat="46.10361" lon="6.74285">
        <ele>927</ele>
        <time>2022-06-09T14:24:15Z</time>
      </trkpt>
      <trkpt lat="46.10364" lon="6.74274">
        <ele>927</ele>
        <time>2022-06-09T14:24:17Z</time>
      </trkpt>
      <trkpt lat="46.10361" lon="6.74271">
        <ele>927</ele>
        <time>2022-06-09T14:24:18Z</time>
      </trkpt>
      <trkpt lat="46.10359" lon="6.74271">
        <ele>927</ele>
        <time>2022-06-09T14:24:18Z</time>
      </trkpt>
      <trkpt lat="46.10354" lon="6.7428">
        <ele>925</ele>
        <time>2022-06-09T14:24:20Z</time>
      </trkpt>
      <trkpt lat="46.10345" lon="6.74284">
        <ele>923</ele>
        <time>2022-06-09T14:24:22Z</time>
      </trkpt>
      <trkpt lat="46.10344" lon="6.74288">
        <ele>922</ele>
        <time>2022-06-09T14:24:23Z</time>
      </trkpt>
      <trkpt lat="46.10337" lon="6.7429">
        <ele>920</ele>
        <time>2022-06-09T14:24:25Z</time>
      </trkpt>
      <trkpt lat="46.10336" lon="6.74295">
        <ele>919</ele>
        <time>2022-06-09T14:24:26Z</time>
      </trkpt>
      <trkpt lat="46.10339" lon="6.74297">
        <ele>920</ele>
        <time>2022-06-09T14:24:26Z</time>
      </trkpt>
      <trkpt lat="46.10333" lon="6.74321">
        <ele>915</ele>
        <time>2022-06-09T14:24:31Z</time>
      </trkpt>
      <trkpt lat="46.10326" lon="6.74319">
        <ele>914</ele>
        <time>2022-06-09T14:24:32Z</time>
      </trkpt>
      <trkpt lat="46.10308" lon="6.74334">
        <ele>909</ele>
        <time>2022-06-09T14:24:37Z</time>
      </trkpt>
      <trkpt lat="46.10285" lon="6.7434">
        <ele>904</ele>
        <time>2022-06-09T14:24:42Z</time>
      </trkpt>
      <trkpt lat="46.10282" lon="6.74343">
        <ele>904</ele>
        <time>2022-06-09T14:24:43Z</time>
      </trkpt>
      <trkpt lat="46.10277" lon="6.7436">
        <ele>903</ele>
        <time>2022-06-09T14:24:46Z</time>
      </trkpt>
      <trkpt lat="46.10279" lon="6.74362">
        <ele>904</ele>
        <time>2022-06-09T14:24:47Z</time>
      </trkpt>
      <trkpt lat="46.10271" lon="6.74337">
        <ele>901</ele>
        <time>2022-06-09T14:24:51Z</time>
      </trkpt>
      <trkpt lat="46.10248" lon="6.74319">
        <ele>899</ele>
        <time>2022-06-09T14:24:57Z</time>
      </trkpt>
      <trkpt lat="46.10209" lon="6.74329">
        <ele>889</ele>
        <time>2022-06-09T14:25:07Z</time>
      </trkpt>
      <trkpt lat="46.10192" lon="6.74326">
        <ele>886</ele>
        <time>2022-06-09T14:25:11Z</time>
      </trkpt>
      <trkpt lat="46.10157" lon="6.74291">
        <ele>885</ele>
        <time>2022-06-09T14:25:21Z</time>
      </trkpt>
      <trkpt lat="46.10128" lon="6.74279">
        <ele>882</ele>
        <time>2022-06-09T14:25:28Z</time>
      </trkpt>
      <trkpt lat="46.10124" lon="6.74269">
        <ele>883</ele>
        <time>2022-06-09T14:25:30Z</time>
      </trkpt>
      <trkpt lat="46.10125" lon="6.74281">
        <ele>882</ele>
        <time>2022-06-09T14:25:32Z</time>
      </trkpt>
      <trkpt lat="46.10131" lon="6.74294">
        <ele>881</ele>
        <time>2022-06-09T14:25:34Z</time>
      </trkpt>
      <trkpt lat="46.10145" lon="6.74308">
        <ele>881</ele>
        <time>2022-06-09T14:25:38Z</time>
      </trkpt>
      <trkpt lat="46.10144" lon="6.74311">
        <ele>881</ele>
        <time>2022-06-09T14:25:39Z</time>
      </trkpt>
      <trkpt lat="46.10129" lon="6.74312">
        <ele>879</ele>
        <time>2022-06-09T14:25:42Z</time>
      </trkpt>
      <trkpt lat="46.10125" lon="6.74327">
        <ele>876</ele>
        <time>2022-06-09T14:25:45Z</time>
      </trkpt>
      <trkpt lat="46.10119" lon="6.74329">
        <ele>875</ele>
        <time>2022-06-09T14:25:46Z</time>
      </trkpt>
      <trkpt lat="46.10098" lon="6.7432">
        <ele>874</ele>
        <time>2022-06-09T14:25:51Z</time>
      </trkpt>
      <trkpt lat="46.10087" lon="6.74322">
        <ele>872</ele>
        <time>2022-06-09T14:25:54Z</time>
      </trkpt>
      <trkpt lat="46.10037" lon="6.74317">
        <ele>868</ele>
        <time>2022-06-09T14:26:06Z</time>
      </trkpt>
      <trkpt lat="46.10031" lon="6.74316">
        <ele>867</ele>
        <time>2022-06-09T14:26:07Z</time>
      </trkpt>
      <trkpt lat="46.10028" lon="6.74312">
        <ele>867</ele>
        <time>2022-06-09T14:26:08Z</time>
      </trkpt>
      <trkpt lat="46.10023" lon="6.74317">
        <ele>866</ele>
        <time>2022-06-09T14:26:09Z</time>
      </trkpt>
      <trkpt lat="46.10013" lon="6.74316">
        <ele>865</ele>
        <time>2022-06-09T14:26:12Z</time>
      </trkpt>
      <trkpt lat="46.10007" lon="6.74309">
        <ele>865</ele>
        <time>2022-06-09T14:26:13Z</time>
      </trkpt>
      <trkpt lat="46.09982" lon="6.74293">
        <ele>863</ele>
        <time>2022-06-09T14:26:20Z</time>
      </trkpt>
      <trkpt lat="46.09977" lon="6.74286">
        <ele>863</ele>
        <time>2022-06-09T14:26:21Z</time>
      </trkpt>
      <trkpt lat="46.09969" lon="6.74288">
        <ele>862</ele>
        <time>2022-06-09T14:26:23Z</time>
      </trkpt>
      <trkpt lat="46.09941" lon="6.74279">
        <ele>859</ele>
        <time>2022-06-09T14:26:30Z</time>
      </trkpt>
      <trkpt lat="46.09912" lon="6.74265">
        <ele>856</ele>
        <time>2022-06-09T14:26:37Z</time>
      </trkpt>
      <trkpt lat="46.09878" lon="6.74269">
        <ele>853</ele>
        <time>2022-06-09T14:26:45Z</time>
      </trkpt>
      <trkpt lat="46.09869" lon="6.74275">
        <ele>852</ele>
        <time>2022-06-09T14:26:48Z</time>
      </trkpt>
      <trkpt lat="46.0986" lon="6.74271">
        <ele>851</ele>
        <time>2022-06-09T14:26:50Z</time>
      </trkpt>
      <trkpt lat="46.09849" lon="6.74272">
        <ele>850</ele>
        <time>2022-06-09T14:26:52Z</time>
      </trkpt>
      <trkpt lat="46.09825" lon="6.74252">
        <ele>847</ele>
        <time>2022-06-09T14:26:59Z</time>
      </trkpt>
      <trkpt lat="46.09821" lon="6.74239">
        <ele>847</ele>
        <time>2022-06-09T14:27:01Z</time>
      </trkpt>
      <trkpt lat="46.09805" lon="6.74228">
        <ele>844</ele>
        <time>2022-06-09T14:27:05Z</time>
      </trkpt>
      <trkpt lat="46.09799" lon="6.74233">
        <ele>843</ele>
        <time>2022-06-09T14:27:07Z</time>
      </trkpt>
      <trkpt lat="46.09791" lon="6.74232">
        <ele>841</ele>
        <time>2022-06-09T14:27:09Z</time>
      </trkpt>
      <trkpt lat="46.09788" lon="6.74235">
        <ele>841</ele>
        <time>2022-06-09T14:27:10Z</time>
      </trkpt>
      <trkpt lat="46.09781" lon="6.74233">
        <ele>839</ele>
        <time>2022-06-09T14:27:11Z</time>
      </trkpt>
      <trkpt lat="46.09761" lon="6.7424">
        <ele>835</ele>
        <time>2022-06-09T14:27:16Z</time>
      </trkpt>
      <trkpt lat="46.09752" lon="6.74252">
        <ele>833</ele>
        <time>2022-06-09T14:27:19Z</time>
      </trkpt>
      <trkpt lat="46.0974" lon="6.74279">
        <ele>833</ele>
        <time>2022-06-09T14:27:24Z</time>
      </trkpt>
      <trkpt lat="46.09712" lon="6.7429">
        <ele>831</ele>
        <time>2022-06-09T14:27:31Z</time>
      </trkpt>
      <trkpt lat="46.09703" lon="6.74289">
        <ele>830</ele>
        <time>2022-06-09T14:27:33Z</time>
      </trkpt>
      <trkpt lat="46.0969" lon="6.74281">
        <ele>828</ele>
        <time>2022-06-09T14:27:36Z</time>
      </trkpt>
      <trkpt lat="46.09677" lon="6.74281">
        <ele>827</ele>
        <time>2022-06-09T14:27:39Z</time>
      </trkpt>
      <trkpt lat="46.09667" lon="6.7429">
        <ele>826</ele>
        <time>2022-06-09T14:27:42Z</time>
      </trkpt>
      <trkpt lat="46.0966" lon="6.7429">
        <ele>825</ele>
        <time>2022-06-09T14:27:44Z</time>
      </trkpt>
      <trkpt lat="46.09646" lon="6.74268">
        <ele>823</ele>
        <time>2022-06-09T14:27:49Z</time>
      </trkpt>
      <trkpt lat="46.09638" lon="6.74227">
        <ele>822</ele>
        <time>2022-06-09T14:27:55Z</time>
      </trkpt>
      <trkpt lat="46.09635" lon="6.74222">
        <ele>822</ele>
        <time>2022-06-09T14:27:56Z</time>
      </trkpt>
      <trkpt lat="46.09614" lon="6.74205">
        <ele>821</ele>
        <time>2022-06-09T14:28:02Z</time>
      </trkpt>
      <trkpt lat="46.09606" lon="6.74194">
        <ele>821</ele>
        <time>2022-06-09T14:28:05Z</time>
      </trkpt>
      <trkpt lat="46.09591" lon="6.74193">
        <ele>820</ele>
        <time>2022-06-09T14:28:08Z</time>
      </trkpt>
      <trkpt lat="46.09577" lon="6.74186">
        <ele>818</ele>
        <time>2022-06-09T14:28:12Z</time>
      </trkpt>
      <trkpt lat="46.09574" lon="6.74193">
        <ele>818</ele>
        <time>2022-06-09T14:28:13Z</time>
      </trkpt>
      <trkpt lat="46.09556" lon="6.74195">
        <ele>817</ele>
        <time>2022-06-09T14:28:17Z</time>
      </trkpt>
      <trkpt lat="46.09549" lon="6.74185">
        <ele>816</ele>
        <time>2022-06-09T14:28:20Z</time>
      </trkpt>
      <trkpt lat="46.09497" lon="6.74161">
        <ele>813</ele>
        <time>2022-06-09T14:28:32Z</time>
      </trkpt>
      <trkpt lat="46.09473" lon="6.74146">
        <ele>812</ele>
        <time>2022-06-09T14:28:38Z</time>
      </trkpt>
      <trkpt lat="46.09454" lon="6.74144">
        <ele>809</ele>
        <time>2022-06-09T14:28:43Z</time>
      </trkpt>
      <trkpt lat="46.09453" lon="6.74161">
        <ele>807</ele>
        <time>2022-06-09T14:28:46Z</time>
      </trkpt>
      <trkpt lat="46.0945" lon="6.74171">
        <ele>806</ele>
        <time>2022-06-09T14:28:47Z</time>
      </trkpt>
      <trkpt lat="46.09446" lon="6.74173">
        <ele>806</ele>
        <time>2022-06-09T14:28:48Z</time>
      </trkpt>
      <trkpt lat="46.09415" lon="6.74173">
        <ele>802</ele>
        <time>2022-06-09T14:28:56Z</time>
      </trkpt>
      <trkpt lat="46.09381" lon="6.74157">
        <ele>800</ele>
        <time>2022-06-09T14:29:04Z</time>
      </trkpt>
      <trkpt lat="46.09365" lon="6.74153">
        <ele>799</ele>
        <time>2022-06-09T14:29:08Z</time>
      </trkpt>
      <trkpt lat="46.09353" lon="6.74144">
        <ele>799</ele>
        <time>2022-06-09T14:29:11Z</time>
      </trkpt>
      <trkpt lat="46.09333" lon="6.74139">
        <ele>797</ele>
        <time>2022-06-09T14:29:16Z</time>
      </trkpt>
      <trkpt lat="46.09309" lon="6.74124">
        <ele>796</ele>
        <time>2022-06-09T14:29:22Z</time>
      </trkpt>
      <trkpt lat="46.09288" lon="6.74135">
        <ele>794</ele>
        <time>2022-06-09T14:29:27Z</time>
      </trkpt>
      <trkpt lat="46.09284" lon="6.74133">
        <ele>794</ele>
        <time>2022-06-09T14:29:28Z</time>
      </trkpt>
      <trkpt lat="46.0927" lon="6.74123">
        <ele>793</ele>
        <time>2022-06-09T14:29:32Z</time>
      </trkpt>
      <trkpt lat="46.09236" lon="6.74091">
        <ele>790</ele>
        <time>2022-06-09T14:29:41Z</time>
      </trkpt>
      <trkpt lat="46.09211" lon="6.74074">
        <ele>786</ele>
        <time>2022-06-09T14:29:48Z</time>
      </trkpt>
      <trkpt lat="46.09194" lon="6.74042">
        <ele>785</ele>
        <time>2022-06-09T14:29:54Z</time>
      </trkpt>
      <trkpt lat="46.09182" lon="6.74025">
        <ele>785</ele>
        <time>2022-06-09T14:29:58Z</time>
      </trkpt>
      <trkpt lat="46.09162" lon="6.74007">
        <ele>785</ele>
        <time>2022-06-09T14:30:03Z</time>
      </trkpt>
      <trkpt lat="46.0915" lon="6.74">
        <ele>784</ele>
        <time>2022-06-09T14:30:07Z</time>
      </trkpt>
      <trkpt lat="46.09131" lon="6.73995">
        <ele>781</ele>
        <time>2022-06-09T14:30:11Z</time>
      </trkpt>
      <trkpt lat="46.09111" lon="6.73993">
        <ele>779</ele>
        <time>2022-06-09T14:30:16Z</time>
      </trkpt>
      <trkpt lat="46.09097" lon="6.73986">
        <ele>777</ele>
        <time>2022-06-09T14:30:19Z</time>
      </trkpt>
      <trkpt lat="46.09088" lon="6.73968">
        <ele>776</ele>
        <time>2022-06-09T14:30:23Z</time>
      </trkpt>
      <trkpt lat="46.09089" lon="6.73947">
        <ele>775</ele>
        <time>2022-06-09T14:30:26Z</time>
      </trkpt>
      <trkpt lat="46.09061" lon="6.73922">
        <ele>773</ele>
        <time>2022-06-09T14:30:34Z</time>
      </trkpt>
      <trkpt lat="46.09045" lon="6.73903">
        <ele>772</ele>
        <time>2022-06-09T14:30:39Z</time>
      </trkpt>
      <trkpt lat="46.09027" lon="6.73872">
        <ele>771</ele>
        <time>2022-06-09T14:30:45Z</time>
      </trkpt>
      <trkpt lat="46.09014" lon="6.73858">
        <ele>771</ele>
        <time>2022-06-09T14:30:49Z</time>
      </trkpt>
      <trkpt lat="46.08998" lon="6.73847">
        <ele>770</ele>
        <time>2022-06-09T14:30:53Z</time>
      </trkpt>
      <trkpt lat="46.09001" lon="6.73853">
        <ele>770</ele>
        <time>2022-06-09T14:30:54Z</time>
      </trkpt>
      <trkpt lat="46.09017" lon="6.73857">
        <ele>771</ele>
        <time>2022-06-09T14:30:58Z</time>
      </trkpt>
      <trkpt lat="46.09018" lon="6.7386">
        <ele>771</ele>
        <time>2022-06-09T14:30:59Z</time>
      </trkpt>
      <trkpt lat="46.08945" lon="6.73841">
        <ele>767</ele>
        <time>2022-06-09T14:31:16Z</time>
      </trkpt>
      <trkpt lat="46.08935" lon="6.73835">
        <ele>766</ele>
        <time>2022-06-09T14:31:19Z</time>
      </trkpt>
      <trkpt lat="46.08876" lon="6.73828">
        <ele>764</ele>
        <time>2022-06-09T14:31:32Z</time>
      </trkpt>
      <trkpt lat="46.08832" lon="6.73794">
        <ele>762</ele>
        <time>2022-06-09T14:31:44Z</time>
      </trkpt>
      <trkpt lat="46.08718" lon="6.73722">
        <ele>760</ele>
        <time>2022-06-09T14:32:13Z</time>
      </trkpt>
      <trkpt lat="46.08713" lon="6.7371">
        <ele>759</ele>
        <time>2022-06-09T14:32:15Z</time>
      </trkpt>
      <trkpt lat="46.08701" lon="6.7365">
        <ele>760</ele>
        <time>2022-06-09T14:32:25Z</time>
      </trkpt>
      <trkpt lat="46.08669" lon="6.7359">
        <ele>762</ele>
        <time>2022-06-09T14:32:38Z</time>
      </trkpt>
      <trkpt lat="46.08631" lon="6.73528">
        <ele>762</ele>
        <time>2022-06-09T14:32:51Z</time>
      </trkpt>
      <trkpt lat="46.08562" lon="6.73442">
        <ele>757</ele>
        <time>2022-06-09T14:33:12Z</time>
      </trkpt>
      <trkpt lat="46.08536" lon="6.73416">
        <ele>754</ele>
        <time>2022-06-09T14:33:20Z</time>
      </trkpt>
      <trkpt lat="46.08528" lon="6.73419">
        <ele>752</ele>
        <time>2022-06-09T14:33:22Z</time>
      </trkpt>
      <trkpt lat="46.0852" lon="6.73415">
        <ele>750</ele>
        <time>2022-06-09T14:33:24Z</time>
      </trkpt>
      <trkpt lat="46.0851" lon="6.734">
        <ele>748</ele>
        <time>2022-06-09T14:33:27Z</time>
      </trkpt>
      <trkpt lat="46.08492" lon="6.73341">
        <ele>744</ele>
        <time>2022-06-09T14:33:38Z</time>
      </trkpt>
      <trkpt lat="46.08492" lon="6.7332">
        <ele>744</ele>
        <time>2022-06-09T14:33:41Z</time>
      </trkpt>
      <trkpt lat="46.08499" lon="6.73281">
        <ele>746</ele>
        <time>2022-06-09T14:33:47Z</time>
      </trkpt>
      <trkpt lat="46.0849" lon="6.73263">
        <ele>744</ele>
        <time>2022-06-09T14:33:51Z</time>
      </trkpt>
      <trkpt lat="46.08484" lon="6.73261">
        <ele>743</ele>
        <time>2022-06-09T14:33:53Z</time>
      </trkpt>
      <trkpt lat="46.08478" lon="6.73263">
        <ele>741</ele>
        <time>2022-06-09T14:33:54Z</time>
      </trkpt>
      <trkpt lat="46.08473" lon="6.73269">
        <ele>740</ele>
        <time>2022-06-09T14:33:55Z</time>
      </trkpt>
      <trkpt lat="46.08468" lon="6.73306">
        <ele>739</ele>
        <time>2022-06-09T14:34:02Z</time>
      </trkpt>
      <trkpt lat="46.08464" lon="6.73323">
        <ele>738</ele>
        <time>2022-06-09T14:34:04Z</time>
      </trkpt>
      <trkpt lat="46.0846" lon="6.7333">
        <ele>738</ele>
        <time>2022-06-09T14:34:06Z</time>
      </trkpt>
      <trkpt lat="46.08417" lon="6.73366">
        <ele>729</ele>
        <time>2022-06-09T14:34:18Z</time>
      </trkpt>
      <trkpt lat="46.084" lon="6.73388">
        <ele>728</ele>
        <time>2022-06-09T14:34:23Z</time>
      </trkpt>
      <trkpt lat="46.08395" lon="6.73391">
        <ele>728</ele>
        <time>2022-06-09T14:34:24Z</time>
      </trkpt>
      <trkpt lat="46.08388" lon="6.73389">
        <ele>727</ele>
        <time>2022-06-09T14:34:26Z</time>
      </trkpt>
      <trkpt lat="46.0838" lon="6.73376">
        <ele>727</ele>
        <time>2022-06-09T14:34:29Z</time>
      </trkpt>
      <trkpt lat="46.08355" lon="6.73301">
        <ele>723</ele>
        <time>2022-06-09T14:34:42Z</time>
      </trkpt>
      <trkpt lat="46.08339" lon="6.73227">
        <ele>720</ele>
        <time>2022-06-09T14:34:55Z</time>
      </trkpt>
      <trkpt lat="46.08336" lon="6.73144">
        <ele>718</ele>
        <time>2022-06-09T14:35:08Z</time>
      </trkpt>
      <trkpt lat="46.08322" lon="6.73077">
        <ele>716</ele>
        <time>2022-06-09T14:35:19Z</time>
      </trkpt>
      <trkpt lat="46.08278" lon="6.72932">
        <ele>711</ele>
        <time>2022-06-09T14:35:45Z</time>
      </trkpt>
      <trkpt lat="46.08273" lon="6.72887">
        <ele>711</ele>
        <time>2022-06-09T14:35:52Z</time>
      </trkpt>
      <trkpt lat="46.08279" lon="6.72853">
        <ele>711</ele>
        <time>2022-06-09T14:35:58Z</time>
      </trkpt>
      <trkpt lat="46.08297" lon="6.72808">
        <ele>711</ele>
        <time>2022-06-09T14:36:07Z</time>
      </trkpt>
      <trkpt lat="46.08298" lon="6.72782">
        <ele>710</ele>
        <time>2022-06-09T14:36:11Z</time>
      </trkpt>
      <trkpt lat="46.08325" lon="6.72728">
        <ele>709</ele>
        <time>2022-06-09T14:36:22Z</time>
      </trkpt>
      <trkpt lat="46.08324" lon="6.72714">
        <ele>709</ele>
        <time>2022-06-09T14:36:24Z</time>
      </trkpt>
      <trkpt lat="46.08329" lon="6.72704">
        <ele>709</ele>
        <time>2022-06-09T14:36:26Z</time>
      </trkpt>
      <trkpt lat="46.08333" lon="6.7268">
        <ele>708</ele>
        <time>2022-06-09T14:36:30Z</time>
      </trkpt>
      <trkpt lat="46.08338" lon="6.72641">
        <ele>708</ele>
        <time>2022-06-09T14:36:36Z</time>
      </trkpt>
      <trkpt lat="46.08338" lon="6.72607">
        <ele>707</ele>
        <time>2022-06-09T14:36:42Z</time>
      </trkpt>
      <trkpt lat="46.08342" lon="6.72593">
        <ele>708</ele>
        <time>2022-06-09T14:36:44Z</time>
      </trkpt>
      <trkpt lat="46.08361" lon="6.72562">
        <ele>710</ele>
        <time>2022-06-09T14:36:51Z</time>
      </trkpt>
      <trkpt lat="46.0837" lon="6.72557">
        <ele>711</ele>
        <time>2022-06-09T14:36:53Z</time>
      </trkpt>
      <trkpt lat="46.08372" lon="6.72546">
        <ele>710</ele>
        <time>2022-06-09T14:36:55Z</time>
      </trkpt>
      <trkpt lat="46.08365" lon="6.72529">
        <ele>709</ele>
        <time>2022-06-09T14:36:58Z</time>
      </trkpt>
      <trkpt lat="46.08359" lon="6.72526">
        <ele>708</ele>
        <time>2022-06-09T14:37:00Z</time>
      </trkpt>
      <trkpt lat="46.08358" lon="6.72522">
        <ele>708</ele>
        <time>2022-06-09T14:37:00Z</time>
      </trkpt>
      <trkpt lat="46.0827" lon="6.72446">
        <ele>702</ele>
        <time>2022-06-09T14:37:24Z</time>
      </trkpt>
      <trkpt lat="46.08263" lon="6.72425">
        <ele>701</ele>
        <time>2022-06-09T14:37:28Z</time>
      </trkpt>
      <trkpt lat="46.08256" lon="6.72432">
        <ele>701</ele>
        <time>2022-06-09T14:37:30Z</time>
      </trkpt>
      <trkpt lat="46.08259" lon="6.72431">
        <ele>701</ele>
        <time>2022-06-09T14:37:31Z</time>
      </trkpt>
      <trkpt lat="46.08266" lon="6.7244">
        <ele>701</ele>
        <time>2022-06-09T14:37:33Z</time>
      </trkpt>
      <trkpt lat="46.08257" lon="6.72428">
        <ele>701</ele>
        <time>2022-06-09T14:37:36Z</time>
      </trkpt>
      <trkpt lat="46.08256" lon="6.72433">
        <ele>701</ele>
        <time>2022-06-09T14:37:37Z</time>
      </trkpt>
      <trkpt lat="46.08252" lon="6.72432">
        <ele>701</ele>
        <time>2022-06-09T14:37:38Z</time>
      </trkpt>
      <trkpt lat="46.08252" lon="6.72437">
        <ele>701</ele>
        <time>2022-06-09T14:37:39Z</time>
      </trkpt>
      <trkpt lat="46.08249" lon="6.72433">
        <ele>701</ele>
        <time>2022-06-09T14:37:39Z</time>
      </trkpt>
      <trkpt lat="46.08251" lon="6.72433">
        <ele>701</ele>
        <time>2022-06-09T14:37:40Z</time>
      </trkpt>
      <trkpt lat="46.08256" lon="6.72441">
        <ele>701</ele>
        <time>2022-06-09T14:37:42Z</time>
      </trkpt>
      <trkpt lat="46.08245" lon="6.72426">
        <ele>700</ele>
        <time>2022-06-09T14:37:45Z</time>
      </trkpt>
      <trkpt lat="46.0823" lon="6.72413">
        <ele>700</ele>
        <time>2022-06-09T14:37:49Z</time>
      </trkpt>
      <trkpt lat="46.08219" lon="6.72423">
        <ele>701</ele>
        <time>2022-06-09T14:37:52Z</time>
      </trkpt>
      <trkpt lat="46.08215" lon="6.72421">
        <ele>701</ele>
        <time>2022-06-09T14:37:53Z</time>
      </trkpt>
      <trkpt lat="46.08205" lon="6.72429">
        <ele>701</ele>
        <time>2022-06-09T14:37:56Z</time>
      </trkpt>
      <trkpt lat="46.08196" lon="6.72455">
        <ele>702</ele>
        <time>2022-06-09T14:38:01Z</time>
      </trkpt>
      <trkpt lat="46.08188" lon="6.72465">
        <ele>702</ele>
        <time>2022-06-09T14:38:03Z</time>
      </trkpt>
      <trkpt lat="46.08167" lon="6.72508">
        <ele>703</ele>
        <time>2022-06-09T14:38:12Z</time>
      </trkpt>
      <trkpt lat="46.08091" lon="6.72646">
        <ele>703</ele>
        <time>2022-06-09T14:38:40Z</time>
      </trkpt>
      <trkpt lat="46.08095" lon="6.72659">
        <ele>704</ele>
        <time>2022-06-09T14:38:43Z</time>
      </trkpt>
      <trkpt lat="46.08088" lon="6.72669">
        <ele>704</ele>
        <time>2022-06-09T14:38:45Z</time>
      </trkpt>
      <trkpt lat="46.08088" lon="6.72674">
        <ele>704</ele>
        <time>2022-06-09T14:38:46Z</time>
      </trkpt>
      <trkpt lat="46.08095" lon="6.72691">
        <ele>705</ele>
        <time>2022-06-09T14:38:49Z</time>
      </trkpt>
      <trkpt lat="46.08093" lon="6.72691">
        <ele>705</ele>
        <time>2022-06-09T14:38:49Z</time>
      </trkpt>
      <trkpt lat="46.08098" lon="6.72682">
        <ele>705</ele>
        <time>2022-06-09T14:38:51Z</time>
      </trkpt>
      <trkpt lat="46.08097" lon="6.72687">
        <ele>705</ele>
        <time>2022-06-09T14:38:52Z</time>
      </trkpt>
      <trkpt lat="46.08095" lon="6.72685">
        <ele>705</ele>
        <time>2022-06-09T14:38:53Z</time>
      </trkpt>
      <trkpt lat="46.08098" lon="6.72686">
        <ele>705</ele>
        <time>2022-06-09T14:38:53Z</time>
      </trkpt>
      <trkpt lat="46.081" lon="6.72681">
        <ele>705</ele>
        <time>2022-06-09T14:38:54Z</time>
      </trkpt>
      <trkpt lat="46.081" lon="6.72685">
        <ele>705</ele>
        <time>2022-06-09T14:38:55Z</time>
      </trkpt>
      <trkpt lat="46.08098" lon="6.7269">
        <ele>705</ele>
        <time>2022-06-09T14:38:56Z</time>
      </trkpt>
      <trkpt lat="46.08095" lon="6.72689">
        <ele>705</ele>
        <time>2022-06-09T14:38:57Z</time>
      </trkpt>
      <trkpt lat="46.081" lon="6.7268">
        <ele>705</ele>
        <time>2022-06-09T14:38:58Z</time>
      </trkpt>
      <trkpt lat="46.08098" lon="6.72686">
        <ele>705</ele>
        <time>2022-06-09T14:38:59Z</time>
      </trkpt>
      <trkpt lat="46.08092" lon="6.72679">
        <ele>704</ele>
        <time>2022-06-09T14:39:01Z</time>
      </trkpt>
      <trkpt lat="46.08091" lon="6.72671">
        <ele>704</ele>
        <time>2022-06-09T14:39:03Z</time>
      </trkpt>
      <trkpt lat="46.08102" lon="6.7264">
        <ele>703</ele>
        <time>2022-06-09T14:39:08Z</time>
      </trkpt>
      <trkpt lat="46.082" lon="6.72458">
        <ele>702</ele>
        <time>2022-06-09T14:39:46Z</time>
      </trkpt>
      <trkpt lat="46.0823" lon="6.7241">
        <ele>700</ele>
        <time>2022-06-09T14:39:56Z</time>
      </trkpt>
      <trkpt lat="46.08278" lon="6.72457">
        <ele>702</ele>
        <time>2022-06-09T14:40:10Z</time>
      </trkpt>
      <trkpt lat="46.08327" lon="6.72488">
        <ele>704</ele>
        <time>2022-06-09T14:40:22Z</time>
      </trkpt>
      <trkpt lat="46.0833" lon="6.72483">
        <ele>704</ele>
        <time>2022-06-09T14:40:23Z</time>
      </trkpt>
      <trkpt lat="46.08337" lon="6.72485">
        <ele>705</ele>
        <time>2022-06-09T14:40:25Z</time>
      </trkpt>
      <trkpt lat="46.08332" lon="6.72482">
        <ele>704</ele>
        <time>2022-06-09T14:40:26Z</time>
      </trkpt>
      <trkpt lat="46.08324" lon="6.72488">
        <ele>704</ele>
        <time>2022-06-09T14:40:28Z</time>
      </trkpt>
      <trkpt lat="46.08309" lon="6.72473">
        <ele>703</ele>
        <time>2022-06-09T14:40:32Z</time>
      </trkpt>
      <trkpt lat="46.08317" lon="6.72465">
        <ele>703</ele>
        <time>2022-06-09T14:40:35Z</time>
      </trkpt>
      <trkpt lat="46.0832" lon="6.72451">
        <ele>703</ele>
        <time>2022-06-09T14:40:37Z</time>
      </trkpt>
      <trkpt lat="46.08325" lon="6.72441">
        <ele>703</ele>
        <time>2022-06-09T14:40:39Z</time>
      </trkpt>
      <trkpt lat="46.08326" lon="6.72447">
        <ele>703</ele>
        <time>2022-06-09T14:40:40Z</time>
      </trkpt>
      <trkpt lat="46.08325" lon="6.72443">
        <ele>703</ele>
        <time>2022-06-09T14:40:41Z</time>
      </trkpt>
      <trkpt lat="46.08325" lon="6.72446">
        <ele>703</ele>
        <time>2022-06-09T14:40:41Z</time>
      </trkpt>
      <trkpt lat="46.08329" lon="6.72439">
        <ele>703</ele>
        <time>2022-06-09T14:40:43Z</time>
      </trkpt>
      <trkpt lat="46.08328" lon="6.72443">
        <ele>703</ele>
        <time>2022-06-09T14:40:43Z</time>
      </trkpt>
      <trkpt lat="46.08325" lon="6.72438">
        <ele>703</ele>
        <time>2022-06-09T14:40:45Z</time>
      </trkpt>
      <trkpt lat="46.08325" lon="6.7243">
        <ele>702</ele>
        <time>2022-06-09T14:40:46Z</time>
      </trkpt>
      <trkpt lat="46.08314" lon="6.72445">
        <ele>703</ele>
        <time>2022-06-09T14:40:49Z</time>
      </trkpt>
      <trkpt lat="46.08317" lon="6.72462">
        <ele>703</ele>
        <time>2022-06-09T14:40:52Z</time>
      </trkpt>
      <trkpt lat="46.08313" lon="6.72476">
        <ele>704</ele>
        <time>2022-06-09T14:40:55Z</time>
      </trkpt>
      <trkpt lat="46.08318" lon="6.72483">
        <ele>704</ele>
        <time>2022-06-09T14:40:56Z</time>
      </trkpt>
      <trkpt lat="46.08353" lon="6.72515">
        <ele>707</ele>
        <time>2022-06-09T14:41:06Z</time>
      </trkpt>
      <trkpt lat="46.08364" lon="6.72538">
        <ele>709</ele>
        <time>2022-06-09T14:41:10Z</time>
      </trkpt>
      <trkpt lat="46.08365" lon="6.72548">
        <ele>710</ele>
        <time>2022-06-09T14:41:12Z</time>
      </trkpt>
      <trkpt lat="46.08368" lon="6.72549">
        <ele>710</ele>
        <time>2022-06-09T14:41:13Z</time>
      </trkpt>
      <trkpt lat="46.08422" lon="6.72434">
        <ele>709</ele>
        <time>2022-06-09T14:41:35Z</time>
      </trkpt>
      <trkpt lat="46.08434" lon="6.72426">
        <ele>709</ele>
        <time>2022-06-09T14:41:38Z</time>
      </trkpt>
      <trkpt lat="46.0844" lon="6.72409">
        <ele>708</ele>
        <time>2022-06-09T14:41:41Z</time>
      </trkpt>
      <trkpt lat="46.08467" lon="6.72363">
        <ele>708</ele>
        <time>2022-06-09T14:41:51Z</time>
      </trkpt>
      <trkpt lat="46.0849" lon="6.72333">
        <ele>708</ele>
        <time>2022-06-09T14:41:58Z</time>
      </trkpt>
      <trkpt lat="46.08525" lon="6.72278">
        <ele>711</ele>
        <time>2022-06-09T14:42:11Z</time>
      </trkpt>
      <trkpt lat="46.08548" lon="6.72264">
        <ele>714</ele>
        <time>2022-06-09T14:42:16Z</time>
      </trkpt>
      <trkpt lat="46.08567" lon="6.72256">
        <ele>717</ele>
        <time>2022-06-09T14:42:21Z</time>
      </trkpt>
      <trkpt lat="46.08575" lon="6.72257">
        <ele>718</ele>
        <time>2022-06-09T14:42:23Z</time>
      </trkpt>
      <trkpt lat="46.08576" lon="6.72261">
        <ele>719</ele>
        <time>2022-06-09T14:42:24Z</time>
      </trkpt>
      <trkpt lat="46.0857" lon="6.72312">
        <ele>722</ele>
        <time>2022-06-09T14:42:32Z</time>
      </trkpt>
      <trkpt lat="46.08571" lon="6.72321">
        <ele>723</ele>
        <time>2022-06-09T14:42:33Z</time>
      </trkpt>
      <trkpt lat="46.08566" lon="6.72351">
        <ele>724</ele>
        <time>2022-06-09T14:42:38Z</time>
      </trkpt>
      <trkpt lat="46.08577" lon="6.72365">
        <ele>727</ele>
        <time>2022-06-09T14:42:42Z</time>
      </trkpt>
      <trkpt lat="46.08587" lon="6.72365">
        <ele>729</ele>
        <time>2022-06-09T14:42:44Z</time>
      </trkpt>
      <trkpt lat="46.08599" lon="6.7238">
        <ele>734</ele>
        <time>2022-06-09T14:42:48Z</time>
      </trkpt>
      <trkpt lat="46.08609" lon="6.72443">
        <ele>746</ele>
        <time>2022-06-09T14:42:58Z</time>
      </trkpt>
      <trkpt lat="46.08619" lon="6.72454">
        <ele>751</ele>
        <time>2022-06-09T14:43:01Z</time>
      </trkpt>
      <trkpt lat="46.08624" lon="6.72451">
        <ele>752</ele>
        <time>2022-06-09T14:43:03Z</time>
      </trkpt>
      <trkpt lat="46.08636" lon="6.72435">
        <ele>752</ele>
        <time>2022-06-09T14:43:06Z</time>
      </trkpt>
      <trkpt lat="46.08637" lon="6.72429">
        <ele>751</ele>
        <time>2022-06-09T14:43:07Z</time>
      </trkpt>
      <trkpt lat="46.08641" lon="6.72427">
        <ele>752</ele>
        <time>2022-06-09T14:43:08Z</time>
      </trkpt>
      <trkpt lat="46.08631" lon="6.72447">
        <ele>753</ele>
        <time>2022-06-09T14:43:12Z</time>
      </trkpt>
      <trkpt lat="46.08632" lon="6.72473">
        <ele>759</ele>
        <time>2022-06-09T14:43:17Z</time>
      </trkpt>
      <trkpt lat="46.0863" lon="6.72489">
        <ele>761</ele>
        <time>2022-06-09T14:43:19Z</time>
      </trkpt>
      <trkpt lat="46.08618" lon="6.72535">
        <ele>768</ele>
        <time>2022-06-09T14:43:27Z</time>
      </trkpt>
      <trkpt lat="46.08612" lon="6.72547">
        <ele>769</ele>
        <time>2022-06-09T14:43:30Z</time>
      </trkpt>
      <trkpt lat="46.08602" lon="6.7258">
        <ele>774</ele>
        <time>2022-06-09T14:43:35Z</time>
      </trkpt>
      <trkpt lat="46.08602" lon="6.72592">
        <ele>775</ele>
        <time>2022-06-09T14:43:37Z</time>
      </trkpt>
      <trkpt lat="46.08611" lon="6.72613">
        <ele>778</ele>
        <time>2022-06-09T14:43:41Z</time>
      </trkpt>
      <trkpt lat="46.08628" lon="6.72619">
        <ele>780</ele>
        <time>2022-06-09T14:43:45Z</time>
      </trkpt>
      <trkpt lat="46.08668" lon="6.7265">
        <ele>787</ele>
        <time>2022-06-09T14:43:56Z</time>
      </trkpt>
      <trkpt lat="46.08675" lon="6.72665">
        <ele>789</ele>
        <time>2022-06-09T14:43:59Z</time>
      </trkpt>
      <trkpt lat="46.08683" lon="6.72663">
        <ele>791</ele>
        <time>2022-06-09T14:44:01Z</time>
      </trkpt>
      <trkpt lat="46.08706" lon="6.7264">
        <ele>797</ele>
        <time>2022-06-09T14:44:07Z</time>
      </trkpt>
      <trkpt lat="46.08729" lon="6.7261">
        <ele>802</ele>
        <time>2022-06-09T14:44:15Z</time>
      </trkpt>
      <trkpt lat="46.08763" lon="6.72546">
        <ele>805</ele>
        <time>2022-06-09T14:44:28Z</time>
      </trkpt>
      <trkpt lat="46.08782" lon="6.72516">
        <ele>806</ele>
        <time>2022-06-09T14:44:34Z</time>
      </trkpt>
      <trkpt lat="46.08806" lon="6.72487">
        <ele>810</ele>
        <time>2022-06-09T14:44:42Z</time>
      </trkpt>
      <trkpt lat="46.08832" lon="6.72465">
        <ele>815</ele>
        <time>2022-06-09T14:44:49Z</time>
      </trkpt>
      <trkpt lat="46.08851" lon="6.72436">
        <ele>818</ele>
        <time>2022-06-09T14:44:55Z</time>
      </trkpt>
      <trkpt lat="46.08864" lon="6.72407">
        <ele>820</ele>
        <time>2022-06-09T14:45:01Z</time>
      </trkpt>
      <trkpt lat="46.08874" lon="6.72375">
        <ele>821</ele>
        <time>2022-06-09T14:45:06Z</time>
      </trkpt>
      <trkpt lat="46.08888" lon="6.72361">
        <ele>824</ele>
        <time>2022-06-09T14:45:10Z</time>
      </trkpt>
      <trkpt lat="46.0889" lon="6.72374">
        <ele>826</ele>
        <time>2022-06-09T14:45:13Z</time>
      </trkpt>
      <trkpt lat="46.0888" lon="6.72419">
        <ele>828</ele>
        <time>2022-06-09T14:45:20Z</time>
      </trkpt>
      <trkpt lat="46.08867" lon="6.72501">
        <ele>833</ele>
        <time>2022-06-09T14:45:34Z</time>
      </trkpt>
      <trkpt lat="46.0884" lon="6.72571">
        <ele>833</ele>
        <time>2022-06-09T14:45:47Z</time>
      </trkpt>
      <trkpt lat="46.08841" lon="6.72609">
        <ele>837</ele>
        <time>2022-06-09T14:45:53Z</time>
      </trkpt>
      <trkpt lat="46.08881" lon="6.72719">
        <ele>853</ele>
        <time>2022-06-09T14:46:13Z</time>
      </trkpt>
      <trkpt lat="46.08889" lon="6.7284">
        <ele>854</ele>
        <time>2022-06-09T14:46:33Z</time>
      </trkpt>
      <trkpt lat="46.08881" lon="6.72989">
        <ele>866</ele>
        <time>2022-06-09T14:46:57Z</time>
      </trkpt>
      <trkpt lat="46.08856" lon="6.73062">
        <ele>875</ele>
        <time>2022-06-09T14:47:10Z</time>
      </trkpt>
      <trkpt lat="46.08836" lon="6.73084">
        <ele>876</ele>
        <time>2022-06-09T14:47:16Z</time>
      </trkpt>
      <trkpt lat="46.08814" lon="6.7308">
        <ele>869</ele>
        <time>2022-06-09T14:47:21Z</time>
      </trkpt>
      <trkpt lat="46.08799" lon="6.73096">
        <ele>865</ele>
        <time>2022-06-09T14:47:26Z</time>
      </trkpt>
      <trkpt lat="46.08799" lon="6.73099">
        <ele>865</ele>
        <time>2022-06-09T14:47:26Z</time>
      </trkpt>
      <trkpt lat="46.08805" lon="6.73117">
        <ele>868</ele>
        <time>2022-06-09T14:47:29Z</time>
      </trkpt>
      <trkpt lat="46.08811" lon="6.73119">
        <ele>871</ele>
        <time>2022-06-09T14:47:31Z</time>
      </trkpt>
      <trkpt lat="46.08831" lon="6.73115">
        <ele>878</ele>
        <time>2022-06-09T14:47:35Z</time>
      </trkpt>
      <trkpt lat="46.0886" lon="6.73115">
        <ele>885</ele>
        <time>2022-06-09T14:47:42Z</time>
      </trkpt>
      <trkpt lat="46.08886" lon="6.7311">
        <ele>890</ele>
        <time>2022-06-09T14:47:48Z</time>
      </trkpt>
      <trkpt lat="46.08913" lon="6.73121">
        <ele>899</ele>
        <time>2022-06-09T14:47:55Z</time>
      </trkpt>
      <trkpt lat="46.08935" lon="6.73114">
        <ele>903</ele>
        <time>2022-06-09T14:48:00Z</time>
      </trkpt>
      <trkpt lat="46.08956" lon="6.73079">
        <ele>899</ele>
        <time>2022-06-09T14:48:08Z</time>
      </trkpt>
      <trkpt lat="46.08974" lon="6.73067">
        <ele>902</ele>
        <time>2022-06-09T14:48:12Z</time>
      </trkpt>
      <trkpt lat="46.08995" lon="6.73058">
        <ele>907</ele>
        <time>2022-06-09T14:48:17Z</time>
      </trkpt>
      <trkpt lat="46.09019" lon="6.73028">
        <ele>914</ele>
        <time>2022-06-09T14:48:25Z</time>
      </trkpt>
      <trkpt lat="46.09049" lon="6.72956">
        <ele>925</ele>
        <time>2022-06-09T14:48:38Z</time>
      </trkpt>
      <trkpt lat="46.09073" lon="6.72869">
        <ele>937</ele>
        <time>2022-06-09T14:48:54Z</time>
      </trkpt>
      <trkpt lat="46.09068" lon="6.7281">
        <ele>935</ele>
        <time>2022-06-09T14:49:03Z</time>
      </trkpt>
      <trkpt lat="46.09068" lon="6.72776">
        <ele>937</ele>
        <time>2022-06-09T14:49:09Z</time>
      </trkpt>
      <trkpt lat="46.09064" lon="6.72765">
        <ele>935</ele>
        <time>2022-06-09T14:49:11Z</time>
      </trkpt>
      <trkpt lat="46.09043" lon="6.72728">
        <ele>927</ele>
        <time>2022-06-09T14:49:18Z</time>
      </trkpt>
      <trkpt lat="46.0904" lon="6.727">
        <ele>928</ele>
        <time>2022-06-09T14:49:23Z</time>
      </trkpt>
      <trkpt lat="46.09048" lon="6.72665">
        <ele>933</ele>
        <time>2022-06-09T14:49:29Z</time>
      </trkpt>
      <trkpt lat="46.09056" lon="6.72663">
        <ele>937</ele>
        <time>2022-06-09T14:49:31Z</time>
      </trkpt>
      <trkpt lat="46.09062" lon="6.72658">
        <ele>939</ele>
        <time>2022-06-09T14:49:33Z</time>
      </trkpt>
      <trkpt lat="46.09075" lon="6.72638">
        <ele>944</ele>
        <time>2022-06-09T14:49:37Z</time>
      </trkpt>
      <trkpt lat="46.09088" lon="6.72577">
        <ele>944</ele>
        <time>2022-06-09T14:49:47Z</time>
      </trkpt>
      <trkpt lat="46.09099" lon="6.72538">
        <ele>945</ele>
        <time>2022-06-09T14:49:54Z</time>
      </trkpt>
      <trkpt lat="46.09115" lon="6.72496">
        <ele>949</ele>
        <time>2022-06-09T14:50:02Z</time>
      </trkpt>
      <trkpt lat="46.09152" lon="6.72435">
        <ele>960</ele>
        <time>2022-06-09T14:50:15Z</time>
      </trkpt>
      <trkpt lat="46.09169" lon="6.72399">
        <ele>963</ele>
        <time>2022-06-09T14:50:22Z</time>
      </trkpt>
      <trkpt lat="46.09196" lon="6.72331">
        <ele>966</ele>
        <time>2022-06-09T14:50:35Z</time>
      </trkpt>
      <trkpt lat="46.0923" lon="6.72278">
        <ele>974</ele>
        <time>2022-06-09T14:50:46Z</time>
      </trkpt>
      <trkpt lat="46.09254" lon="6.72204">
        <ele>974</ele>
        <time>2022-06-09T14:51:00Z</time>
      </trkpt>
      <trkpt lat="46.09303" lon="6.72126">
        <ele>978</ele>
        <time>2022-06-09T14:51:17Z</time>
      </trkpt>
      <trkpt lat="46.09345" lon="6.72086">
        <ele>986</ele>
        <time>2022-06-09T14:51:28Z</time>
      </trkpt>
      <trkpt lat="46.09458" lon="6.7199">
        <ele>998</ele>
        <time>2022-06-09T14:51:59Z</time>
      </trkpt>
      <trkpt lat="46.09512" lon="6.71964">
        <ele>1009</ele>
        <time>2022-06-09T14:52:12Z</time>
      </trkpt>
      <trkpt lat="46.09536" lon="6.71956">
        <ele>1011</ele>
        <time>2022-06-09T14:52:18Z</time>
      </trkpt>
      <trkpt lat="46.0956" lon="6.7197">
        <ele>1017</ele>
        <time>2022-06-09T14:52:24Z</time>
      </trkpt>
      <trkpt lat="46.09573" lon="6.71994">
        <ele>1024</ele>
        <time>2022-06-09T14:52:29Z</time>
      </trkpt>
      <trkpt lat="46.09556" lon="6.72012">
        <ele>1025</ele>
        <time>2022-06-09T14:52:34Z</time>
      </trkpt>
      <trkpt lat="46.0953" lon="6.7202">
        <ele>1023</ele>
        <time>2022-06-09T14:52:40Z</time>
      </trkpt>
      <trkpt lat="46.09504" lon="6.72038">
        <ele>1023</ele>
        <time>2022-06-09T14:52:47Z</time>
      </trkpt>
      <trkpt lat="46.09482" lon="6.72061">
        <ele>1022</ele>
        <time>2022-06-09T14:52:53Z</time>
      </trkpt>
      <trkpt lat="46.09475" lon="6.72076">
        <ele>1023</ele>
        <time>2022-06-09T14:52:56Z</time>
      </trkpt>
      <trkpt lat="46.09476" lon="6.72088">
        <ele>1026</ele>
        <time>2022-06-09T14:52:58Z</time>
      </trkpt>
      <trkpt lat="46.09497" lon="6.72093">
        <ele>1033</ele>
        <time>2022-06-09T14:53:03Z</time>
      </trkpt>
      <trkpt lat="46.09519" lon="6.7208">
        <ele>1034</ele>
        <time>2022-06-09T14:53:09Z</time>
      </trkpt>
      <trkpt lat="46.09545" lon="6.7208">
        <ele>1039</ele>
        <time>2022-06-09T14:53:15Z</time>
      </trkpt>
      <trkpt lat="46.09567" lon="6.72084">
        <ele>1043</ele>
        <time>2022-06-09T14:53:20Z</time>
      </trkpt>
      <trkpt lat="46.09589" lon="6.72073">
        <ele>1044</ele>
        <time>2022-06-09T14:53:25Z</time>
      </trkpt>
      <trkpt lat="46.09616" lon="6.72076">
        <ele>1046</ele>
        <time>2022-06-09T14:53:32Z</time>
      </trkpt>
      <trkpt lat="46.0964" lon="6.72083">
        <ele>1049</ele>
        <time>2022-06-09T14:53:37Z</time>
      </trkpt>
      <trkpt lat="46.09668" lon="6.72098">
        <ele>1052</ele>
        <time>2022-06-09T14:53:44Z</time>
      </trkpt>
      <trkpt lat="46.09667" lon="6.721">
        <ele>1052</ele>
        <time>2022-06-09T14:53:45Z</time>
      </trkpt>
      <trkpt lat="46.09671" lon="6.72104">
        <ele>1053</ele>
        <time>2022-06-09T14:53:46Z</time>
      </trkpt>
      <trkpt lat="46.09675" lon="6.7213">
        <ele>1055</ele>
        <time>2022-06-09T14:53:50Z</time>
      </trkpt>
      <trkpt lat="46.09669" lon="6.72159">
        <ele>1058</ele>
        <time>2022-06-09T14:53:55Z</time>
      </trkpt>
      <trkpt lat="46.09656" lon="6.72185">
        <ele>1061</ele>
        <time>2022-06-09T14:54:00Z</time>
      </trkpt>
      <trkpt lat="46.09636" lon="6.72189">
        <ele>1062</ele>
        <time>2022-06-09T14:54:05Z</time>
      </trkpt>
      <trkpt lat="46.09618" lon="6.72205">
        <ele>1064</ele>
        <time>2022-06-09T14:54:10Z</time>
      </trkpt>
      <trkpt lat="46.09611" lon="6.7223">
        <ele>1067</ele>
        <time>2022-06-09T14:54:14Z</time>
      </trkpt>
      <trkpt lat="46.09613" lon="6.72242">
        <ele>1068</ele>
        <time>2022-06-09T14:54:16Z</time>
      </trkpt>
      <trkpt lat="46.09615" lon="6.72243">
        <ele>1068</ele>
        <time>2022-06-09T14:54:17Z</time>
      </trkpt>
      <trkpt lat="46.09616" lon="6.72241">
        <ele>1068</ele>
        <time>2022-06-09T14:54:17Z</time>
      </trkpt>
      <trkpt lat="46.09612" lon="6.7224">
        <ele>1068</ele>
        <time>2022-06-09T14:54:18Z</time>
      </trkpt>
      <trkpt lat="46.09613" lon="6.72237">
        <ele>1068</ele>
        <time>2022-06-09T14:54:19Z</time>
      </trkpt>
      <trkpt lat="46.09616" lon="6.72238">
        <ele>1068</ele>
        <time>2022-06-09T14:54:20Z</time>
      </trkpt>
      <trkpt lat="46.09634" lon="6.72284">
        <ele>1074</ele>
        <time>2022-06-09T14:54:28Z</time>
      </trkpt>
      <trkpt lat="46.09639" lon="6.7229">
        <ele>1075</ele>
        <time>2022-06-09T14:54:30Z</time>
      </trkpt>
      <trkpt lat="46.09651" lon="6.72334">
        <ele>1082</ele>
        <time>2022-06-09T14:54:37Z</time>
      </trkpt>
      <trkpt lat="46.09656" lon="6.72338">
        <ele>1084</ele>
        <time>2022-06-09T14:54:39Z</time>
      </trkpt>
      <trkpt lat="46.09715" lon="6.72357">
        <ele>1092</ele>
        <time>2022-06-09T14:54:53Z</time>
      </trkpt>
      <trkpt lat="46.09762" lon="6.72401">
        <ele>1105</ele>
        <time>2022-06-09T14:55:06Z</time>
      </trkpt>
      <trkpt lat="46.09799" lon="6.7241">
        <ele>1105</ele>
        <time>2022-06-09T14:55:15Z</time>
      </trkpt>
      <trkpt lat="46.09819" lon="6.72431">
        <ele>1109</ele>
        <time>2022-06-09T14:55:20Z</time>
      </trkpt>
      <trkpt lat="46.09849" lon="6.72483">
        <ele>1116</ele>
        <time>2022-06-09T14:55:31Z</time>
      </trkpt>
      <trkpt lat="46.09864" lon="6.72517">
        <ele>1122</ele>
        <time>2022-06-09T14:55:38Z</time>
      </trkpt>
      <trkpt lat="46.09888" lon="6.72599">
        <ele>1133</ele>
        <time>2022-06-09T14:55:52Z</time>
      </trkpt>
      <trkpt lat="46.09893" lon="6.72632">
        <ele>1134</ele>
        <time>2022-06-09T14:55:58Z</time>
      </trkpt>
      <trkpt lat="46.09891" lon="6.72661">
        <ele>1137</ele>
        <time>2022-06-09T14:56:02Z</time>
      </trkpt>
      <trkpt lat="46.09921" lon="6.72758">
        <ele>1142</ele>
        <time>2022-06-09T14:56:20Z</time>
      </trkpt>
      <trkpt lat="46.09928" lon="6.72788">
        <ele>1148</ele>
        <time>2022-06-09T14:56:25Z</time>
      </trkpt>
      <trkpt lat="46.09946" lon="6.7283">
        <ele>1154</ele>
        <time>2022-06-09T14:56:33Z</time>
      </trkpt>
      <trkpt lat="46.09965" lon="6.72836">
        <ele>1149</ele>
        <time>2022-06-09T14:56:37Z</time>
      </trkpt>
      <trkpt lat="46.09989" lon="6.72839">
        <ele>1143</ele>
        <time>2022-06-09T14:56:43Z</time>
      </trkpt>
      <trkpt lat="46.09999" lon="6.7287">
        <ele>1146</ele>
        <time>2022-06-09T14:56:48Z</time>
      </trkpt>
      <trkpt lat="46.10006" lon="6.72883">
        <ele>1148</ele>
        <time>2022-06-09T14:56:51Z</time>
      </trkpt>
      <trkpt lat="46.10025" lon="6.72908">
        <ele>1151</ele>
        <time>2022-06-09T14:56:57Z</time>
      </trkpt>
      <trkpt lat="46.10065" lon="6.72936">
        <ele>1151</ele>
        <time>2022-06-09T14:57:07Z</time>
      </trkpt>
      <trkpt lat="46.10109" lon="6.72987">
        <ele>1153</ele>
        <time>2022-06-09T14:57:21Z</time>
      </trkpt>
      <trkpt lat="46.10133" lon="6.73003">
        <ele>1154</ele>
        <time>2022-06-09T14:57:27Z</time>
      </trkpt>
      <trkpt lat="46.10155" lon="6.72996">
        <ele>1153</ele>
        <time>2022-06-09T14:57:32Z</time>
      </trkpt>
      <trkpt lat="46.1018" lon="6.72997">
        <ele>1155</ele>
        <time>2022-06-09T14:57:38Z</time>
      </trkpt>
      <trkpt lat="46.10193" lon="6.73019">
        <ele>1157</ele>
        <time>2022-06-09T14:57:43Z</time>
      </trkpt>
      <trkpt lat="46.10207" lon="6.73052">
        <ele>1160</ele>
        <time>2022-06-09T14:57:49Z</time>
      </trkpt>
      <trkpt lat="46.10232" lon="6.7307">
        <ele>1164</ele>
        <time>2022-06-09T14:57:55Z</time>
      </trkpt>
      <trkpt lat="46.10246" lon="6.73071">
        <ele>1165</ele>
        <time>2022-06-09T14:57:59Z</time>
      </trkpt>
      <trkpt lat="46.10252" lon="6.73074">
        <ele>1166</ele>
        <time>2022-06-09T14:58:00Z</time>
      </trkpt>
      <trkpt lat="46.10266" lon="6.73068">
        <ele>1168</ele>
        <time>2022-06-09T14:58:04Z</time>
      </trkpt>
      <trkpt lat="46.10272" lon="6.73056">
        <ele>1170</ele>
        <time>2022-06-09T14:58:06Z</time>
      </trkpt>
      <trkpt lat="46.10273" lon="6.73039">
        <ele>1170</ele>
        <time>2022-06-09T14:58:09Z</time>
      </trkpt>
      <trkpt lat="46.10269" lon="6.73027">
        <ele>1169</ele>
        <time>2022-06-09T14:58:11Z</time>
      </trkpt>
      <trkpt lat="46.10266" lon="6.72997">
        <ele>1169</ele>
        <time>2022-06-09T14:58:16Z</time>
      </trkpt>
      <trkpt lat="46.10243" lon="6.72906">
        <ele>1167</ele>
        <time>2022-06-09T14:58:31Z</time>
      </trkpt>
      <trkpt lat="46.10241" lon="6.72882">
        <ele>1170</ele>
        <time>2022-06-09T14:58:35Z</time>
      </trkpt>
      <trkpt lat="46.10224" lon="6.72858">
        <ele>1169</ele>
        <time>2022-06-09T14:58:41Z</time>
      </trkpt>
      <trkpt lat="46.10219" lon="6.72844">
        <ele>1169</ele>
        <time>2022-06-09T14:58:44Z</time>
      </trkpt>
      <trkpt lat="46.10207" lon="6.72791">
        <ele>1172</ele>
        <time>2022-06-09T14:58:53Z</time>
      </trkpt>
      <trkpt lat="46.102" lon="6.72743">
        <ele>1175</ele>
        <time>2022-06-09T14:59:00Z</time>
      </trkpt>
      <trkpt lat="46.10193" lon="6.72719">
        <ele>1176</ele>
        <time>2022-06-09T14:59:05Z</time>
      </trkpt>
      <trkpt lat="46.10148" lon="6.72638">
        <ele>1170</ele>
        <time>2022-06-09T14:59:21Z</time>
      </trkpt>
      <trkpt lat="46.10111" lon="6.72496">
        <ele>1174</ele>
        <time>2022-06-09T14:59:46Z</time>
      </trkpt>
      <trkpt lat="46.10109" lon="6.72469">
        <ele>1174</ele>
        <time>2022-06-09T14:59:50Z</time>
      </trkpt>
      <trkpt lat="46.10111" lon="6.72463">
        <ele>1174</ele>
        <time>2022-06-09T14:59:52Z</time>
      </trkpt>
      <trkpt lat="46.10123" lon="6.72448">
        <ele>1177</ele>
        <time>2022-06-09T14:59:55Z</time>
      </trkpt>
      <trkpt lat="46.10127" lon="6.7245">
        <ele>1178</ele>
        <time>2022-06-09T14:59:56Z</time>
      </trkpt>
      <trkpt lat="46.10158" lon="6.72516">
        <ele>1184</ele>
        <time>2022-06-09T15:00:09Z</time>
      </trkpt>
      <trkpt lat="46.10156" lon="6.72513">
        <ele>1183</ele>
        <time>2022-06-09T15:00:10Z</time>
      </trkpt>
      <trkpt lat="46.10158" lon="6.72508">
        <ele>1184</ele>
        <time>2022-06-09T15:00:11Z</time>
      </trkpt>
      <trkpt lat="46.10137" lon="6.72467">
        <ele>1180</ele>
        <time>2022-06-09T15:00:19Z</time>
      </trkpt>
      <trkpt lat="46.10123" lon="6.72431">
        <ele>1177</ele>
        <time>2022-06-09T15:00:26Z</time>
      </trkpt>
      <trkpt lat="46.10121" lon="6.72415">
        <ele>1177</ele>
        <time>2022-06-09T15:00:28Z</time>
      </trkpt>
      <trkpt lat="46.1012" lon="6.72313">
        <ele>1168</ele>
        <time>2022-06-09T15:00:45Z</time>
      </trkpt>
      <trkpt lat="46.10106" lon="6.72245">
        <ele>1161</ele>
        <time>2022-06-09T15:00:56Z</time>
      </trkpt>
      <trkpt lat="46.10107" lon="6.72217">
        <ele>1159</ele>
        <time>2022-06-09T15:01:01Z</time>
      </trkpt>
      <trkpt lat="46.10099" lon="6.72209">
        <ele>1157</ele>
        <time>2022-06-09T15:01:03Z</time>
      </trkpt>
      <trkpt lat="46.10094" lon="6.72211">
        <ele>1155</ele>
        <time>2022-06-09T15:01:04Z</time>
      </trkpt>
      <trkpt lat="46.10086" lon="6.72225">
        <ele>1155</ele>
        <time>2022-06-09T15:01:07Z</time>
      </trkpt>
      <trkpt lat="46.10076" lon="6.72259">
        <ele>1154</ele>
        <time>2022-06-09T15:01:13Z</time>
      </trkpt>
      <trkpt lat="46.10062" lon="6.72275">
        <ele>1151</ele>
        <time>2022-06-09T15:01:17Z</time>
      </trkpt>
      <trkpt lat="46.10057" lon="6.72276">
        <ele>1150</ele>
        <time>2022-06-09T15:01:19Z</time>
      </trkpt>
      <trkpt lat="46.10047" lon="6.72272">
        <ele>1147</ele>
        <time>2022-06-09T15:01:21Z</time>
      </trkpt>
      <trkpt lat="46.10039" lon="6.72259">
        <ele>1144</ele>
        <time>2022-06-09T15:01:24Z</time>
      </trkpt>
      <trkpt lat="46.10034" lon="6.7224">
        <ele>1141</ele>
        <time>2022-06-09T15:01:27Z</time>
      </trkpt>
      <trkpt lat="46.10034" lon="6.72217">
        <ele>1139</ele>
        <time>2022-06-09T15:01:31Z</time>
      </trkpt>
      <trkpt lat="46.10047" lon="6.72155">
        <ele>1138</ele>
        <time>2022-06-09T15:01:41Z</time>
      </trkpt>
      <trkpt lat="46.10051" lon="6.72144">
        <ele>1138</ele>
        <time>2022-06-09T15:01:43Z</time>
      </trkpt>
      <trkpt lat="46.10088" lon="6.72083">
        <ele>1144</ele>
        <time>2022-06-09T15:01:56Z</time>
      </trkpt>
      <trkpt lat="46.10091" lon="6.72071">
        <ele>1142</ele>
        <time>2022-06-09T15:01:59Z</time>
      </trkpt>
      <trkpt lat="46.10093" lon="6.72058">
        <ele>1140</ele>
        <time>2022-06-09T15:02:01Z</time>
      </trkpt>
      <trkpt lat="46.10092" lon="6.71987">
        <ele>1127</ele>
        <time>2022-06-09T15:02:12Z</time>
      </trkpt>
      <trkpt lat="46.101" lon="6.71911">
        <ele>1120</ele>
        <time>2022-06-09T15:02:25Z</time>
      </trkpt>
      <trkpt lat="46.101" lon="6.71834">
        <ele>1115</ele>
        <time>2022-06-09T15:02:37Z</time>
      </trkpt>
      <trkpt lat="46.10104" lon="6.71823">
        <ele>1116</ele>
        <time>2022-06-09T15:02:39Z</time>
      </trkpt>
      <trkpt lat="46.10111" lon="6.71813">
        <ele>1117</ele>
        <time>2022-06-09T15:02:41Z</time>
      </trkpt>
      <trkpt lat="46.1014" lon="6.71783">
        <ele>1120</ele>
        <time>2022-06-09T15:02:50Z</time>
      </trkpt>
      <trkpt lat="46.1015" lon="6.71763">
        <ele>1120</ele>
        <time>2022-06-09T15:02:54Z</time>
      </trkpt>
      <trkpt lat="46.10201" lon="6.71516">
        <ele>1116</ele>
        <time>2022-06-09T15:03:36Z</time>
      </trkpt>
      <trkpt lat="46.10229" lon="6.71416">
        <ele>1121</ele>
        <time>2022-06-09T15:03:53Z</time>
      </trkpt>
      <trkpt lat="46.10237" lon="6.71347">
        <ele>1121</ele>
        <time>2022-06-09T15:04:04Z</time>
      </trkpt>
      <trkpt lat="46.10247" lon="6.71332">
        <ele>1122</ele>
        <time>2022-06-09T15:04:08Z</time>
      </trkpt>
      <trkpt lat="46.10244" lon="6.71333">
        <ele>1122</ele>
        <time>2022-06-09T15:04:08Z</time>
      </trkpt>
      <trkpt lat="46.10247" lon="6.71345">
        <ele>1122</ele>
        <time>2022-06-09T15:04:10Z</time>
      </trkpt>
      <trkpt lat="46.10248" lon="6.71343">
        <ele>1122</ele>
        <time>2022-06-09T15:04:11Z</time>
      </trkpt>
      <trkpt lat="46.10248" lon="6.71355">
        <ele>1123</ele>
        <time>2022-06-09T15:04:13Z</time>
      </trkpt>
      <trkpt lat="46.10265" lon="6.71389">
        <ele>1126</ele>
        <time>2022-06-09T15:04:20Z</time>
      </trkpt>
      <trkpt lat="46.10283" lon="6.71417">
        <ele>1129</ele>
        <time>2022-06-09T15:04:26Z</time>
      </trkpt>
      <trkpt lat="46.10309" lon="6.71438">
        <ele>1133</ele>
        <time>2022-06-09T15:04:33Z</time>
      </trkpt>
      <trkpt lat="46.10333" lon="6.71456">
        <ele>1138</ele>
        <time>2022-06-09T15:04:39Z</time>
      </trkpt>
      <trkpt lat="46.10363" lon="6.7147">
        <ele>1144</ele>
        <time>2022-06-09T15:04:46Z</time>
      </trkpt>
      <trkpt lat="46.10403" lon="6.71482">
        <ele>1151</ele>
        <time>2022-06-09T15:04:56Z</time>
      </trkpt>
      <trkpt lat="46.10441" lon="6.71483">
        <ele>1160</ele>
        <time>2022-06-09T15:05:05Z</time>
      </trkpt>
      <trkpt lat="46.10455" lon="6.71452">
        <ele>1159</ele>
        <time>2022-06-09T15:05:11Z</time>
      </trkpt>
      <trkpt lat="46.10462" lon="6.71343">
        <ele>1158</ele>
        <time>2022-06-09T15:05:29Z</time>
      </trkpt>
      <trkpt lat="46.10467" lon="6.71339">
        <ele>1159</ele>
        <time>2022-06-09T15:05:30Z</time>
      </trkpt>
      <trkpt lat="46.10471" lon="6.71339">
        <ele>1160</ele>
        <time>2022-06-09T15:05:31Z</time>
      </trkpt>
      <trkpt lat="46.10477" lon="6.71346">
        <ele>1162</ele>
        <time>2022-06-09T15:05:33Z</time>
      </trkpt>
      <trkpt lat="46.10485" lon="6.71378">
        <ele>1164</ele>
        <time>2022-06-09T15:05:38Z</time>
      </trkpt>
      <trkpt lat="46.10478" lon="6.71412">
        <ele>1162</ele>
        <time>2022-06-09T15:05:44Z</time>
      </trkpt>
      <trkpt lat="46.1049" lon="6.71431">
        <ele>1167</ele>
        <time>2022-06-09T15:05:48Z</time>
      </trkpt>
      <trkpt lat="46.10497" lon="6.71426">
        <ele>1168</ele>
        <time>2022-06-09T15:05:50Z</time>
      </trkpt>
      <trkpt lat="46.10501" lon="6.71417">
        <ele>1168</ele>
        <time>2022-06-09T15:05:52Z</time>
      </trkpt>
      <trkpt lat="46.10515" lon="6.71378">
        <ele>1173</ele>
        <time>2022-06-09T15:05:59Z</time>
      </trkpt>
      <trkpt lat="46.10523" lon="6.71327">
        <ele>1176</ele>
        <time>2022-06-09T15:06:07Z</time>
      </trkpt>
      <trkpt lat="46.10524" lon="6.71287">
        <ele>1178</ele>
        <time>2022-06-09T15:06:14Z</time>
      </trkpt>
      <trkpt lat="46.10529" lon="6.71255">
        <ele>1181</ele>
        <time>2022-06-09T15:06:19Z</time>
      </trkpt>
      <trkpt lat="46.10549" lon="6.71161">
        <ele>1186</ele>
        <time>2022-06-09T15:06:35Z</time>
      </trkpt>
      <trkpt lat="46.1057" lon="6.71107">
        <ele>1187</ele>
        <time>2022-06-09T15:06:45Z</time>
      </trkpt>
      <trkpt lat="46.10589" lon="6.71085">
        <ele>1191</ele>
        <time>2022-06-09T15:06:51Z</time>
      </trkpt>
      <trkpt lat="46.10616" lon="6.7109">
        <ele>1200</ele>
        <time>2022-06-09T15:06:57Z</time>
      </trkpt>
      <trkpt lat="46.1062" lon="6.71103">
        <ele>1203</ele>
        <time>2022-06-09T15:06:59Z</time>
      </trkpt>
      <trkpt lat="46.10616" lon="6.71188">
        <ele>1208</ele>
        <time>2022-06-09T15:07:13Z</time>
      </trkpt>
      <trkpt lat="46.10625" lon="6.71215">
        <ele>1212</ele>
        <time>2022-06-09T15:07:18Z</time>
      </trkpt>
      <trkpt lat="46.10638" lon="6.7124">
        <ele>1216</ele>
        <time>2022-06-09T15:07:23Z</time>
      </trkpt>
      <trkpt lat="46.10652" lon="6.71275">
        <ele>1223</ele>
        <time>2022-06-09T15:07:29Z</time>
      </trkpt>
      <trkpt lat="46.10656" lon="6.71301">
        <ele>1226</ele>
        <time>2022-06-09T15:07:34Z</time>
      </trkpt>
      <trkpt lat="46.10655" lon="6.71335">
        <ele>1227</ele>
        <time>2022-06-09T15:07:39Z</time>
      </trkpt>
      <trkpt lat="46.1065" lon="6.71367">
        <ele>1226</ele>
        <time>2022-06-09T15:07:45Z</time>
      </trkpt>
      <trkpt lat="46.10658" lon="6.71388">
        <ele>1230</ele>
        <time>2022-06-09T15:07:48Z</time>
      </trkpt>
      <trkpt lat="46.10663" lon="6.71384">
        <ele>1232</ele>
        <time>2022-06-09T15:07:50Z</time>
      </trkpt>
      <trkpt lat="46.10677" lon="6.71342">
        <ele>1237</ele>
        <time>2022-06-09T15:07:57Z</time>
      </trkpt>
      <trkpt lat="46.10709" lon="6.71271">
        <ele>1247</ele>
        <time>2022-06-09T15:08:11Z</time>
      </trkpt>
      <trkpt lat="46.10736" lon="6.71199">
        <ele>1253</ele>
        <time>2022-06-09T15:08:24Z</time>
      </trkpt>
      <trkpt lat="46.10768" lon="6.71092">
        <ele>1252</ele>
        <time>2022-06-09T15:08:43Z</time>
      </trkpt>
      <trkpt lat="46.10782" lon="6.71031">
        <ele>1254</ele>
        <time>2022-06-09T15:08:54Z</time>
      </trkpt>
      <trkpt lat="46.10795" lon="6.70987">
        <ele>1259</ele>
        <time>2022-06-09T15:09:01Z</time>
      </trkpt>
      <trkpt lat="46.10816" lon="6.70993">
        <ele>1268</ele>
        <time>2022-06-09T15:09:06Z</time>
      </trkpt>
      <trkpt lat="46.10843" lon="6.71061">
        <ele>1277</ele>
        <time>2022-06-09T15:09:19Z</time>
      </trkpt>
      <trkpt lat="46.10851" lon="6.71092">
        <ele>1280</ele>
        <time>2022-06-09T15:09:24Z</time>
      </trkpt>
      <trkpt lat="46.10851" lon="6.71224">
        <ele>1289</ele>
        <time>2022-06-09T15:09:46Z</time>
      </trkpt>
      <trkpt lat="46.10845" lon="6.71265">
        <ele>1291</ele>
        <time>2022-06-09T15:09:53Z</time>
      </trkpt>
      <trkpt lat="46.10841" lon="6.71276">
        <ele>1290</ele>
        <time>2022-06-09T15:09:55Z</time>
      </trkpt>
      <trkpt lat="46.10837" lon="6.71302">
        <ele>1291</ele>
        <time>2022-06-09T15:09:59Z</time>
      </trkpt>
      <trkpt lat="46.10838" lon="6.71308">
        <ele>1292</ele>
        <time>2022-06-09T15:10:00Z</time>
      </trkpt>
      <trkpt lat="46.10842" lon="6.71311">
        <ele>1293</ele>
        <time>2022-06-09T15:10:01Z</time>
      </trkpt>
      <trkpt lat="46.10858" lon="6.71296">
        <ele>1298</ele>
        <time>2022-06-09T15:10:05Z</time>
      </trkpt>
      <trkpt lat="46.10892" lon="6.71199">
        <ele>1306</ele>
        <time>2022-06-09T15:10:23Z</time>
      </trkpt>
      <trkpt lat="46.10898" lon="6.71141">
        <ele>1306</ele>
        <time>2022-06-09T15:10:32Z</time>
      </trkpt>
      <trkpt lat="46.10901" lon="6.71038">
        <ele>1310</ele>
        <time>2022-06-09T15:10:49Z</time>
      </trkpt>
      <trkpt lat="46.10896" lon="6.71011">
        <ele>1309</ele>
        <time>2022-06-09T15:10:54Z</time>
      </trkpt>
      <trkpt lat="46.10894" lon="6.70966">
        <ele>1310</ele>
        <time>2022-06-09T15:11:01Z</time>
      </trkpt>
      <trkpt lat="46.10901" lon="6.70927">
        <ele>1315</ele>
        <time>2022-06-09T15:11:08Z</time>
      </trkpt>
      <trkpt lat="46.10925" lon="6.70863">
        <ele>1328</ele>
        <time>2022-06-09T15:11:19Z</time>
      </trkpt>
      <trkpt lat="46.10935" lon="6.7082">
        <ele>1332</ele>
        <time>2022-06-09T15:11:27Z</time>
      </trkpt>
      <trkpt lat="46.10954" lon="6.70779">
        <ele>1340</ele>
        <time>2022-06-09T15:11:35Z</time>
      </trkpt>
      <trkpt lat="46.10976" lon="6.70689">
        <ele>1348</ele>
        <time>2022-06-09T15:11:50Z</time>
      </trkpt>
      <trkpt lat="46.10984" lon="6.70611">
        <ele>1351</ele>
        <time>2022-06-09T15:12:03Z</time>
      </trkpt>
      <trkpt lat="46.1098" lon="6.70577">
        <ele>1348</ele>
        <time>2022-06-09T15:12:08Z</time>
      </trkpt>
      <trkpt lat="46.10976" lon="6.70492">
        <ele>1354</ele>
        <time>2022-06-09T15:12:22Z</time>
      </trkpt>
      <trkpt lat="46.10972" lon="6.70347">
        <ele>1370</ele>
        <time>2022-06-09T15:12:46Z</time>
      </trkpt>
      <trkpt lat="46.10967" lon="6.70324">
        <ele>1370</ele>
        <time>2022-06-09T15:12:50Z</time>
      </trkpt>
      <trkpt lat="46.1095" lon="6.70295">
        <ele>1364</ele>
        <time>2022-06-09T15:12:56Z</time>
      </trkpt>
      <trkpt lat="46.10933" lon="6.70227">
        <ele>1362</ele>
        <time>2022-06-09T15:13:07Z</time>
      </trkpt>
      <trkpt lat="46.10915" lon="6.70173">
        <ele>1362</ele>
        <time>2022-06-09T15:13:17Z</time>
      </trkpt>
      <trkpt lat="46.10913" lon="6.70152">
        <ele>1362</ele>
        <time>2022-06-09T15:13:21Z</time>
      </trkpt>
      <trkpt lat="46.10916" lon="6.7015">
        <ele>1363</ele>
        <time>2022-06-09T15:13:21Z</time>
      </trkpt>
      <trkpt lat="46.10976" lon="6.70177">
        <ele>1373</ele>
        <time>2022-06-09T15:13:36Z</time>
      </trkpt>
      <trkpt lat="46.11005" lon="6.70195">
        <ele>1379</ele>
        <time>2022-06-09T15:13:43Z</time>
      </trkpt>
      <trkpt lat="46.11033" lon="6.70222">
        <ele>1384</ele>
        <time>2022-06-09T15:13:51Z</time>
      </trkpt>
      <trkpt lat="46.1105" lon="6.70248">
        <ele>1389</ele>
        <time>2022-06-09T15:13:57Z</time>
      </trkpt>
      <trkpt lat="46.11052" lon="6.70252">
        <ele>1390</ele>
        <time>2022-06-09T15:13:58Z</time>
      </trkpt>
      <trkpt lat="46.1105" lon="6.70262">
        <ele>1391</ele>
        <time>2022-06-09T15:14:00Z</time>
      </trkpt>
      <trkpt lat="46.11047" lon="6.70264">
        <ele>1391</ele>
        <time>2022-06-09T15:14:00Z</time>
      </trkpt>
      <trkpt lat="46.1102" lon="6.70253">
        <ele>1387</ele>
        <time>2022-06-09T15:14:07Z</time>
      </trkpt>
      <trkpt lat="46.11003" lon="6.70255">
        <ele>1385</ele>
        <time>2022-06-09T15:14:11Z</time>
      </trkpt>
      <trkpt lat="46.11002" lon="6.7025">
        <ele>1385</ele>
        <time>2022-06-09T15:14:12Z</time>
      </trkpt>
      <trkpt lat="46.11007" lon="6.70252">
        <ele>1386</ele>
        <time>2022-06-09T15:14:13Z</time>
      </trkpt>
      <trkpt lat="46.11001" lon="6.70252">
        <ele>1385</ele>
        <time>2022-06-09T15:14:14Z</time>
      </trkpt>
      <trkpt lat="46.10997" lon="6.70249">
        <ele>1384</ele>
        <time>2022-06-09T15:14:15Z</time>
      </trkpt>
      <trkpt lat="46.10999" lon="6.70247">
        <ele>1384</ele>
        <time>2022-06-09T15:14:16Z</time>
      </trkpt>
      <trkpt lat="46.11003" lon="6.70249">
        <ele>1385</ele>
        <time>2022-06-09T15:14:17Z</time>
      </trkpt>
      <trkpt lat="46.10995" lon="6.70268">
        <ele>1383</ele>
        <time>2022-06-09T15:14:21Z</time>
      </trkpt>
      <trkpt lat="46.10996" lon="6.70296">
        <ele>1383</ele>
        <time>2022-06-09T15:14:25Z</time>
      </trkpt>
      <trkpt lat="46.11012" lon="6.70317">
        <ele>1389</ele>
        <time>2022-06-09T15:14:30Z</time>
      </trkpt>
      <trkpt lat="46.11057" lon="6.70325">
        <ele>1403</ele>
        <time>2022-06-09T15:14:41Z</time>
      </trkpt>
      <trkpt lat="46.11099" lon="6.70347">
        <ele>1414</ele>
        <time>2022-06-09T15:14:51Z</time>
      </trkpt>
      <trkpt lat="46.11117" lon="6.70354">
        <ele>1415</ele>
        <time>2022-06-09T15:14:55Z</time>
      </trkpt>
      <trkpt lat="46.11172" lon="6.70383">
        <ele>1421</ele>
        <time>2022-06-09T15:15:09Z</time>
      </trkpt>
      <trkpt lat="46.11181" lon="6.7039">
        <ele>1421</ele>
        <time>2022-06-09T15:15:12Z</time>
      </trkpt>
      <trkpt lat="46.11205" lon="6.70423">
        <ele>1426</ele>
        <time>2022-06-09T15:15:19Z</time>
      </trkpt>
      <trkpt lat="46.11214" lon="6.7044">
        <ele>1428</ele>
        <time>2022-06-09T15:15:23Z</time>
      </trkpt>
      <trkpt lat="46.11227" lon="6.70494">
        <ele>1437</ele>
        <time>2022-06-09T15:15:32Z</time>
      </trkpt>
      <trkpt lat="46.11247" lon="6.70521">
        <ele>1442</ele>
        <time>2022-06-09T15:15:38Z</time>
      </trkpt>
      <trkpt lat="46.11256" lon="6.70529">
        <ele>1444</ele>
        <time>2022-06-09T15:15:41Z</time>
      </trkpt>
      <trkpt lat="46.11266" lon="6.70531">
        <ele>1444</ele>
        <time>2022-06-09T15:15:43Z</time>
      </trkpt>
      <trkpt lat="46.11295" lon="6.7055">
        <ele>1447</ele>
        <time>2022-06-09T15:15:51Z</time>
      </trkpt>
      <trkpt lat="46.11315" lon="6.70567">
        <ele>1450</ele>
        <time>2022-06-09T15:15:56Z</time>
      </trkpt>
      <trkpt lat="46.11351" lon="6.70619">
        <ele>1454</ele>
        <time>2022-06-09T15:16:08Z</time>
      </trkpt>
      <trkpt lat="46.11359" lon="6.7064">
        <ele>1456</ele>
        <time>2022-06-09T15:16:12Z</time>
      </trkpt>
      <trkpt lat="46.11393" lon="6.70685">
        <ele>1457</ele>
        <time>2022-06-09T15:16:23Z</time>
      </trkpt>
      <trkpt lat="46.11393" lon="6.70689">
        <ele>1457</ele>
        <time>2022-06-09T15:16:23Z</time>
      </trkpt>
      <trkpt lat="46.11386" lon="6.70699">
        <ele>1460</ele>
        <time>2022-06-09T15:16:26Z</time>
      </trkpt>
      <trkpt lat="46.1137" lon="6.70695">
        <ele>1462</ele>
        <time>2022-06-09T15:16:29Z</time>
      </trkpt>
      <trkpt lat="46.11356" lon="6.70684">
        <ele>1462</ele>
        <time>2022-06-09T15:16:33Z</time>
      </trkpt>
      <trkpt lat="46.11354" lon="6.7068">
        <ele>1462</ele>
        <time>2022-06-09T15:16:34Z</time>
      </trkpt>
      <trkpt lat="46.11323" lon="6.70657">
        <ele>1465</ele>
        <time>2022-06-09T15:16:42Z</time>
      </trkpt>
      <trkpt lat="46.11303" lon="6.70644">
        <ele>1468</ele>
        <time>2022-06-09T15:16:47Z</time>
      </trkpt>
      <trkpt lat="46.11283" lon="6.70635">
        <ele>1470</ele>
        <time>2022-06-09T15:16:52Z</time>
      </trkpt>
      <trkpt lat="46.11261" lon="6.70635">
        <ele>1475</ele>
        <time>2022-06-09T15:16:57Z</time>
      </trkpt>
      <trkpt lat="46.112" lon="6.70655">
        <ele>1479</ele>
        <time>2022-06-09T15:17:12Z</time>
      </trkpt>
      <trkpt lat="46.1113" lon="6.70669">
        <ele>1455</ele>
        <time>2022-06-09T15:17:28Z</time>
      </trkpt>
      <trkpt lat="46.11126" lon="6.7068">
        <ele>1454</ele>
        <time>2022-06-09T15:17:30Z</time>
      </trkpt>
      <trkpt lat="46.11128" lon="6.70686">
        <ele>1455</ele>
        <time>2022-06-09T15:17:31Z</time>
      </trkpt>
      <trkpt lat="46.11149" lon="6.70692">
        <ele>1470</ele>
        <time>2022-06-09T15:17:36Z</time>
      </trkpt>
      <trkpt lat="46.11205" lon="6.70702">
        <ele>1487</ele>
        <time>2022-06-09T15:17:50Z</time>
      </trkpt>
      <trkpt lat="46.11236" lon="6.70722">
        <ele>1495</ele>
        <time>2022-06-09T15:17:58Z</time>
      </trkpt>
      <trkpt lat="46.11253" lon="6.70736">
        <ele>1499</ele>
        <time>2022-06-09T15:18:02Z</time>
      </trkpt>
      <trkpt lat="46.11296" lon="6.70871">
        <ele>1508</ele>
        <time>2022-06-09T15:18:26Z</time>
      </trkpt>
      <trkpt lat="46.11308" lon="6.70921">
        <ele>1516</ele>
        <time>2022-06-09T15:18:35Z</time>
      </trkpt>
      <trkpt lat="46.11316" lon="6.7097">
        <ele>1522</ele>
        <time>2022-06-09T15:18:43Z</time>
      </trkpt>
      <trkpt lat="46.11309" lon="6.70979">
        <ele>1525</ele>
        <time>2022-06-09T15:18:45Z</time>
      </trkpt>
      <trkpt lat="46.11313" lon="6.70972">
        <ele>1523</ele>
        <time>2022-06-09T15:18:47Z</time>
      </trkpt>
      <trkpt lat="46.11319" lon="6.70977">
        <ele>1523</ele>
        <time>2022-06-09T15:18:48Z</time>
      </trkpt>
      <trkpt lat="46.11314" lon="6.70974">
        <ele>1523</ele>
        <time>2022-06-09T15:18:49Z</time>
      </trkpt>
      <trkpt lat="46.11312" lon="6.70976">
        <ele>1524</ele>
        <time>2022-06-09T15:18:50Z</time>
      </trkpt>
      <trkpt lat="46.11313" lon="6.70973">
        <ele>1523</ele>
        <time>2022-06-09T15:18:51Z</time>
      </trkpt>
      <trkpt lat="46.11311" lon="6.70973">
        <ele>1524</ele>
        <time>2022-06-09T15:18:51Z</time>
      </trkpt>
      <trkpt lat="46.11314" lon="6.70971">
        <ele>1523</ele>
        <time>2022-06-09T15:18:52Z</time>
      </trkpt>
      <trkpt lat="46.11312" lon="6.70971">
        <ele>1523</ele>
        <time>2022-06-09T15:18:52Z</time>
      </trkpt>
      <trkpt lat="46.11323" lon="6.70981">
        <ele>1522</ele>
        <time>2022-06-09T15:18:55Z</time>
      </trkpt>
      <trkpt lat="46.11323" lon="6.7099">
        <ele>1524</ele>
        <time>2022-06-09T15:18:57Z</time>
      </trkpt>
      <trkpt lat="46.1136" lon="6.71069">
        <ele>1531</ele>
        <time>2022-06-09T15:19:12Z</time>
      </trkpt>
      <trkpt lat="46.11377" lon="6.7109">
        <ele>1534</ele>
        <time>2022-06-09T15:19:17Z</time>
      </trkpt>
      <trkpt lat="46.11396" lon="6.711">
        <ele>1534</ele>
        <time>2022-06-09T15:19:22Z</time>
      </trkpt>
      <trkpt lat="46.11419" lon="6.71106">
        <ele>1534</ele>
        <time>2022-06-09T15:19:28Z</time>
      </trkpt>
      <trkpt lat="46.11441" lon="6.71108">
        <ele>1534</ele>
        <time>2022-06-09T15:19:33Z</time>
      </trkpt>
      <trkpt lat="46.11465" lon="6.71121">
        <ele>1537</ele>
        <time>2022-06-09T15:19:39Z</time>
      </trkpt>
      <trkpt lat="46.11513" lon="6.71156">
        <ele>1545</ele>
        <time>2022-06-09T15:19:51Z</time>
      </trkpt>
      <trkpt lat="46.1156" lon="6.71208">
        <ele>1550</ele>
        <time>2022-06-09T15:20:05Z</time>
      </trkpt>
      <trkpt lat="46.11586" lon="6.7123">
        <ele>1551</ele>
        <time>2022-06-09T15:20:12Z</time>
      </trkpt>
      <trkpt lat="46.1162" lon="6.71227">
        <ele>1554</ele>
        <time>2022-06-09T15:20:20Z</time>
      </trkpt>
      <trkpt lat="46.11678" lon="6.71205">
        <ele>1556</ele>
        <time>2022-06-09T15:20:34Z</time>
      </trkpt>
      <trkpt lat="46.11703" lon="6.71203">
        <ele>1559</ele>
        <time>2022-06-09T15:20:40Z</time>
      </trkpt>
      <trkpt lat="46.1173" lon="6.71207">
        <ele>1562</ele>
        <time>2022-06-09T15:20:46Z</time>
      </trkpt>
      <trkpt lat="46.11776" lon="6.71222">
        <ele>1569</ele>
        <time>2022-06-09T15:20:57Z</time>
      </trkpt>
      <trkpt lat="46.11805" lon="6.71213">
        <ele>1572</ele>
        <time>2022-06-09T15:21:04Z</time>
      </trkpt>
      <trkpt lat="46.11849" lon="6.71181">
        <ele>1574</ele>
        <time>2022-06-09T15:21:16Z</time>
      </trkpt>
      <trkpt lat="46.11872" lon="6.71172">
        <ele>1575</ele>
        <time>2022-06-09T15:21:21Z</time>
      </trkpt>
      <trkpt lat="46.11911" lon="6.71164">
        <ele>1579</ele>
        <time>2022-06-09T15:21:30Z</time>
      </trkpt>
      <trkpt lat="46.11937" lon="6.71151">
        <ele>1581</ele>
        <time>2022-06-09T15:21:37Z</time>
      </trkpt>
      <trkpt lat="46.12014" lon="6.71125">
        <ele>1590</ele>
        <time>2022-06-09T15:21:55Z</time>
      </trkpt>
      <trkpt lat="46.12033" lon="6.71116">
        <ele>1593</ele>
        <time>2022-06-09T15:22:00Z</time>
      </trkpt>
      <trkpt lat="46.12061" lon="6.71115">
        <ele>1598</ele>
        <time>2022-06-09T15:22:07Z</time>
      </trkpt>
      <trkpt lat="46.12106" lon="6.71088">
        <ele>1600</ele>
        <time>2022-06-09T15:22:18Z</time>
      </trkpt>
      <trkpt lat="46.12129" lon="6.7108">
        <ele>1601</ele>
        <time>2022-06-09T15:22:23Z</time>
      </trkpt>
      <trkpt lat="46.122" lon="6.71097">
        <ele>1611</ele>
        <time>2022-06-09T15:22:40Z</time>
      </trkpt>
      <trkpt lat="46.12229" lon="6.71095">
        <ele>1613</ele>
        <time>2022-06-09T15:22:47Z</time>
      </trkpt>
      <trkpt lat="46.12297" lon="6.71099">
        <ele>1620</ele>
        <time>2022-06-09T15:23:03Z</time>
      </trkpt>
      <trkpt lat="46.12368" lon="6.7111">
        <ele>1631</ele>
        <time>2022-06-09T15:23:20Z</time>
      </trkpt>
      <trkpt lat="46.1242" lon="6.71115">
        <ele>1639</ele>
        <time>2022-06-09T15:23:32Z</time>
      </trkpt>
      <trkpt lat="46.12474" lon="6.711">
        <ele>1641</ele>
        <time>2022-06-09T15:23:45Z</time>
      </trkpt>
      <trkpt lat="46.12524" lon="6.71091">
        <ele>1643</ele>
        <time>2022-06-09T15:23:56Z</time>
      </trkpt>
      <trkpt lat="46.12552" lon="6.71105">
        <ele>1649</ele>
        <time>2022-06-09T15:24:03Z</time>
      </trkpt>
      <trkpt lat="46.12581" lon="6.71112">
        <ele>1654</ele>
        <time>2022-06-09T15:24:10Z</time>
      </trkpt>
      <trkpt lat="46.12618" lon="6.71101">
        <ele>1650</ele>
        <time>2022-06-09T15:24:19Z</time>
      </trkpt>
      <trkpt lat="46.12646" lon="6.71113">
        <ele>1657</ele>
        <time>2022-06-09T15:24:26Z</time>
      </trkpt>
      <trkpt lat="46.12674" lon="6.71115">
        <ele>1658</ele>
        <time>2022-06-09T15:24:32Z</time>
      </trkpt>
      <trkpt lat="46.12705" lon="6.71109">
        <ele>1657</ele>
        <time>2022-06-09T15:24:40Z</time>
      </trkpt>
      <trkpt lat="46.12724" lon="6.71108">
        <ele>1657</ele>
        <time>2022-06-09T15:24:44Z</time>
      </trkpt>
      <trkpt lat="46.12752" lon="6.71124">
        <ele>1662</ele>
        <time>2022-06-09T15:24:51Z</time>
      </trkpt>
      <trkpt lat="46.12773" lon="6.71141">
        <ele>1668</ele>
        <time>2022-06-09T15:24:57Z</time>
      </trkpt>
      <trkpt lat="46.12818" lon="6.7118">
        <ele>1676</ele>
        <time>2022-06-09T15:25:09Z</time>
      </trkpt>
      <trkpt lat="46.12834" lon="6.71198">
        <ele>1679</ele>
        <time>2022-06-09T15:25:14Z</time>
      </trkpt>
      <trkpt lat="46.1285" lon="6.71233">
        <ele>1684</ele>
        <time>2022-06-09T15:25:21Z</time>
      </trkpt>
      <trkpt lat="46.12869" lon="6.71314">
        <ele>1690</ele>
        <time>2022-06-09T15:25:34Z</time>
      </trkpt>
      <trkpt lat="46.12885" lon="6.71342">
        <ele>1692</ele>
        <time>2022-06-09T15:25:40Z</time>
      </trkpt>
      <trkpt lat="46.12913" lon="6.71353">
        <ele>1690</ele>
        <time>2022-06-09T15:25:47Z</time>
      </trkpt>
      <trkpt lat="46.12936" lon="6.71338">
        <ele>1691</ele>
        <time>2022-06-09T15:25:53Z</time>
      </trkpt>
      <trkpt lat="46.12959" lon="6.71307">
        <ele>1692</ele>
        <time>2022-06-09T15:26:00Z</time>
      </trkpt>
      <trkpt lat="46.12965" lon="6.71294">
        <ele>1692</ele>
        <time>2022-06-09T15:26:03Z</time>
      </trkpt>
      <trkpt lat="46.12964" lon="6.71267">
        <ele>1690</ele>
        <time>2022-06-09T15:26:07Z</time>
      </trkpt>
      <trkpt lat="46.12968" lon="6.71266">
        <ele>1691</ele>
        <time>2022-06-09T15:26:08Z</time>
      </trkpt>
      <trkpt lat="46.12966" lon="6.71266">
        <ele>1691</ele>
        <time>2022-06-09T15:26:09Z</time>
      </trkpt>
      <trkpt lat="46.12969" lon="6.71259">
        <ele>1691</ele>
        <time>2022-06-09T15:26:10Z</time>
      </trkpt>
      <trkpt lat="46.12978" lon="6.71256">
        <ele>1692</ele>
        <time>2022-06-09T15:26:12Z</time>
      </trkpt>
      <trkpt lat="46.12982" lon="6.71252">
        <ele>1692</ele>
        <time>2022-06-09T15:26:13Z</time>
      </trkpt>
      <trkpt lat="46.12997" lon="6.71217">
        <ele>1691</ele>
        <time>2022-06-09T15:26:20Z</time>
      </trkpt>
      <trkpt lat="46.13002" lon="6.71211">
        <ele>1691</ele>
        <time>2022-06-09T15:26:21Z</time>
      </trkpt>
      <trkpt lat="46.13026" lon="6.71208">
        <ele>1691</ele>
        <time>2022-06-09T15:26:27Z</time>
      </trkpt>
      <trkpt lat="46.13137" lon="6.71267">
        <ele>1703</ele>
        <time>2022-06-09T15:26:55Z</time>
      </trkpt>
      <trkpt lat="46.13167" lon="6.71272">
        <ele>1704</ele>
        <time>2022-06-09T15:27:02Z</time>
      </trkpt>
      <trkpt lat="46.13197" lon="6.7125">
        <ele>1705</ele>
        <time>2022-06-09T15:27:10Z</time>
      </trkpt>
      <trkpt lat="46.13216" lon="6.7122">
        <ele>1706</ele>
        <time>2022-06-09T15:27:16Z</time>
      </trkpt>
      <trkpt lat="46.1324" lon="6.7114">
        <ele>1712</ele>
        <time>2022-06-09T15:27:30Z</time>
      </trkpt>
      <trkpt lat="46.13259" lon="6.71108">
        <ele>1712</ele>
        <time>2022-06-09T15:27:37Z</time>
      </trkpt>
      <trkpt lat="46.13267" lon="6.71103">
        <ele>1709</ele>
        <time>2022-06-09T15:27:39Z</time>
      </trkpt>
      <trkpt lat="46.13288" lon="6.71116">
        <ele>1697</ele>
        <time>2022-06-09T15:27:44Z</time>
      </trkpt>
      <trkpt lat="46.13296" lon="6.71177">
        <ele>1690</ele>
        <time>2022-06-09T15:27:55Z</time>
      </trkpt>
      <trkpt lat="46.13305" lon="6.71211">
        <ele>1687</ele>
        <time>2022-06-09T15:28:00Z</time>
      </trkpt>
      <trkpt lat="46.13337" lon="6.71303">
        <ele>1678</ele>
        <time>2022-06-09T15:28:17Z</time>
      </trkpt>
      <trkpt lat="46.13352" lon="6.71333">
        <ele>1673</ele>
        <time>2022-06-09T15:28:23Z</time>
      </trkpt>
      <trkpt lat="46.13353" lon="6.71362">
        <ele>1674</ele>
        <time>2022-06-09T15:28:28Z</time>
      </trkpt>
      <trkpt lat="46.13357" lon="6.71368">
        <ele>1673</ele>
        <time>2022-06-09T15:28:29Z</time>
      </trkpt>
      <trkpt lat="46.13357" lon="6.71375">
        <ele>1673</ele>
        <time>2022-06-09T15:28:30Z</time>
      </trkpt>
      <trkpt lat="46.13372" lon="6.71376">
        <ele>1667</ele>
        <time>2022-06-09T15:28:34Z</time>
      </trkpt>
      <trkpt lat="46.13403" lon="6.71346">
        <ele>1651</ele>
        <time>2022-06-09T15:28:42Z</time>
      </trkpt>
      <trkpt lat="46.13411" lon="6.71341">
        <ele>1647</ele>
        <time>2022-06-09T15:28:45Z</time>
      </trkpt>
      <trkpt lat="46.13417" lon="6.71341">
        <ele>1645</ele>
        <time>2022-06-09T15:28:46Z</time>
      </trkpt>
      <trkpt lat="46.13423" lon="6.71373">
        <ele>1645</ele>
        <time>2022-06-09T15:28:51Z</time>
      </trkpt>
      <trkpt lat="46.13426" lon="6.71378">
        <ele>1645</ele>
        <time>2022-06-09T15:28:52Z</time>
      </trkpt>
      <trkpt lat="46.13433" lon="6.7138">
        <ele>1643</ele>
        <time>2022-06-09T15:28:54Z</time>
      </trkpt>
      <trkpt lat="46.13441" lon="6.71387">
        <ele>1642</ele>
        <time>2022-06-09T15:28:56Z</time>
      </trkpt>
      <trkpt lat="46.13449" lon="6.71399">
        <ele>1642</ele>
        <time>2022-06-09T15:28:59Z</time>
      </trkpt>
      <trkpt lat="46.13455" lon="6.71414">
        <ele>1643</ele>
        <time>2022-06-09T15:29:02Z</time>
      </trkpt>
      <trkpt lat="46.13463" lon="6.71419">
        <ele>1643</ele>
        <time>2022-06-09T15:29:04Z</time>
      </trkpt>
      <trkpt lat="46.1348" lon="6.71419">
        <ele>1640</ele>
        <time>2022-06-09T15:29:08Z</time>
      </trkpt>
      <trkpt lat="46.13484" lon="6.71416">
        <ele>1638</ele>
        <time>2022-06-09T15:29:09Z</time>
      </trkpt>
      <trkpt lat="46.13509" lon="6.7141">
        <ele>1634</ele>
        <time>2022-06-09T15:29:15Z</time>
      </trkpt>
      <trkpt lat="46.13571" lon="6.71374">
        <ele>1625</ele>
        <time>2022-06-09T15:29:30Z</time>
      </trkpt>
      <trkpt lat="46.13594" lon="6.71373">
        <ele>1626</ele>
        <time>2022-06-09T15:29:36Z</time>
      </trkpt>
      <trkpt lat="46.13621" lon="6.71363">
        <ele>1624</ele>
        <time>2022-06-09T15:29:42Z</time>
      </trkpt>
      <trkpt lat="46.13635" lon="6.71352">
        <ele>1620</ele>
        <time>2022-06-09T15:29:46Z</time>
      </trkpt>
      <trkpt lat="46.13637" lon="6.71355">
        <ele>1622</ele>
        <time>2022-06-09T15:29:47Z</time>
      </trkpt>
      <trkpt lat="46.13667" lon="6.71336">
        <ele>1615</ele>
        <time>2022-06-09T15:29:54Z</time>
      </trkpt>
      <trkpt lat="46.13685" lon="6.71328">
        <ele>1611</ele>
        <time>2022-06-09T15:29:59Z</time>
      </trkpt>
      <trkpt lat="46.13703" lon="6.71337">
        <ele>1615</ele>
        <time>2022-06-09T15:30:03Z</time>
      </trkpt>
      <trkpt lat="46.13715" lon="6.71339">
        <ele>1616</ele>
        <time>2022-06-09T15:30:06Z</time>
      </trkpt>
      <trkpt lat="46.13746" lon="6.71357">
        <ele>1625</ele>
        <time>2022-06-09T15:30:14Z</time>
      </trkpt>
      <trkpt lat="46.13751" lon="6.71355">
        <ele>1624</ele>
        <time>2022-06-09T15:30:15Z</time>
      </trkpt>
      <trkpt lat="46.13779" lon="6.71354">
        <ele>1618</ele>
        <time>2022-06-09T15:30:21Z</time>
      </trkpt>
      <trkpt lat="46.13818" lon="6.7137">
        <ele>1616</ele>
        <time>2022-06-09T15:30:31Z</time>
      </trkpt>
      <trkpt lat="46.13832" lon="6.71379">
        <ele>1616</ele>
        <time>2022-06-09T15:30:34Z</time>
      </trkpt>
      <trkpt lat="46.13842" lon="6.71382">
        <ele>1614</ele>
        <time>2022-06-09T15:30:37Z</time>
      </trkpt>
      <trkpt lat="46.13846" lon="6.71387">
        <ele>1615</ele>
        <time>2022-06-09T15:30:38Z</time>
      </trkpt>
      <trkpt lat="46.1386" lon="6.71391">
        <ele>1612</ele>
        <time>2022-06-09T15:30:41Z</time>
      </trkpt>
      <trkpt lat="46.13872" lon="6.71404">
        <ele>1613</ele>
        <time>2022-06-09T15:30:45Z</time>
      </trkpt>
      <trkpt lat="46.13874" lon="6.71403">
        <ele>1612</ele>
        <time>2022-06-09T15:30:45Z</time>
      </trkpt>
      <trkpt lat="46.13884" lon="6.71412">
        <ele>1611</ele>
        <time>2022-06-09T15:30:48Z</time>
      </trkpt>
      <trkpt lat="46.13894" lon="6.71428">
        <ele>1612</ele>
        <time>2022-06-09T15:30:52Z</time>
      </trkpt>
      <trkpt lat="46.13894" lon="6.71434">
        <ele>1613</ele>
        <time>2022-06-09T15:30:53Z</time>
      </trkpt>
      <trkpt lat="46.13908" lon="6.7145">
        <ele>1612</ele>
        <time>2022-06-09T15:30:57Z</time>
      </trkpt>
      <trkpt lat="46.13927" lon="6.715">
        <ele>1616</ele>
        <time>2022-06-09T15:31:06Z</time>
      </trkpt>
      <trkpt lat="46.13934" lon="6.71506">
        <ele>1614</ele>
        <time>2022-06-09T15:31:08Z</time>
      </trkpt>
      <trkpt lat="46.1394" lon="6.71517">
        <ele>1613</ele>
        <time>2022-06-09T15:31:10Z</time>
      </trkpt>
      <trkpt lat="46.13942" lon="6.71531">
        <ele>1614</ele>
        <time>2022-06-09T15:31:13Z</time>
      </trkpt>
      <trkpt lat="46.13954" lon="6.71543">
        <ele>1611</ele>
        <time>2022-06-09T15:31:16Z</time>
      </trkpt>
      <trkpt lat="46.13959" lon="6.71554">
        <ele>1610</ele>
        <time>2022-06-09T15:31:18Z</time>
      </trkpt>
      <trkpt lat="46.13979" lon="6.71583">
        <ele>1604</ele>
        <time>2022-06-09T15:31:25Z</time>
      </trkpt>
      <trkpt lat="46.13992" lon="6.7159">
        <ele>1598</ele>
        <time>2022-06-09T15:31:28Z</time>
      </trkpt>
      <trkpt lat="46.13998" lon="6.71588">
        <ele>1595</ele>
        <time>2022-06-09T15:31:29Z</time>
      </trkpt>
      <trkpt lat="46.14002" lon="6.71582">
        <ele>1594</ele>
        <time>2022-06-09T15:31:31Z</time>
      </trkpt>
      <trkpt lat="46.14011" lon="6.71554">
        <ele>1595</ele>
        <time>2022-06-09T15:31:36Z</time>
      </trkpt>
      <trkpt lat="46.1401" lon="6.71518">
        <ele>1593</ele>
        <time>2022-06-09T15:31:42Z</time>
      </trkpt>
      <trkpt lat="46.14015" lon="6.71505">
        <ele>1594</ele>
        <time>2022-06-09T15:31:44Z</time>
      </trkpt>
      <trkpt lat="46.14017" lon="6.71514">
        <ele>1595</ele>
        <time>2022-06-09T15:31:45Z</time>
      </trkpt>
      <trkpt lat="46.14024" lon="6.71524">
        <ele>1596</ele>
        <time>2022-06-09T15:31:48Z</time>
      </trkpt>
      <trkpt lat="46.1404" lon="6.7153">
        <ele>1599</ele>
        <time>2022-06-09T15:31:52Z</time>
      </trkpt>
      <trkpt lat="46.14048" lon="6.71536">
        <ele>1600</ele>
        <time>2022-06-09T15:31:54Z</time>
      </trkpt>
      <trkpt lat="46.14062" lon="6.71539">
        <ele>1603</ele>
        <time>2022-06-09T15:31:57Z</time>
      </trkpt>
      <trkpt lat="46.1409" lon="6.7152">
        <ele>1607</ele>
        <time>2022-06-09T15:32:04Z</time>
      </trkpt>
      <trkpt lat="46.14102" lon="6.71503">
        <ele>1610</ele>
        <time>2022-06-09T15:32:08Z</time>
      </trkpt>
      <trkpt lat="46.14104" lon="6.71506">
        <ele>1610</ele>
        <time>2022-06-09T15:32:09Z</time>
      </trkpt>
      <trkpt lat="46.14103" lon="6.71504">
        <ele>1610</ele>
        <time>2022-06-09T15:32:09Z</time>
      </trkpt>
      <trkpt lat="46.14107" lon="6.71501">
        <ele>1610</ele>
        <time>2022-06-09T15:32:10Z</time>
      </trkpt>
      <trkpt lat="46.14125" lon="6.71502">
        <ele>1613</ele>
        <time>2022-06-09T15:32:15Z</time>
      </trkpt>
      <trkpt lat="46.14165" lon="6.71496">
        <ele>1619</ele>
        <time>2022-06-09T15:32:24Z</time>
      </trkpt>
      <trkpt lat="46.14187" lon="6.71499">
        <ele>1620</ele>
        <time>2022-06-09T15:32:29Z</time>
      </trkpt>
      <trkpt lat="46.14197" lon="6.71498">
        <ele>1620</ele>
        <time>2022-06-09T15:32:31Z</time>
      </trkpt>
      <trkpt lat="46.14238" lon="6.71484">
        <ele>1622</ele>
        <time>2022-06-09T15:32:41Z</time>
      </trkpt>
      <trkpt lat="46.14268" lon="6.71463">
        <ele>1625</ele>
        <time>2022-06-09T15:32:49Z</time>
      </trkpt>
      <trkpt lat="46.143" lon="6.71473">
        <ele>1623</ele>
        <time>2022-06-09T15:32:57Z</time>
      </trkpt>
      <trkpt lat="46.14304" lon="6.71471">
        <ele>1624</ele>
        <time>2022-06-09T15:32:58Z</time>
      </trkpt>
      <trkpt lat="46.14304" lon="6.71473">
        <ele>1623</ele>
        <time>2022-06-09T15:32:58Z</time>
      </trkpt>
      <trkpt lat="46.1433" lon="6.71434">
        <ele>1625</ele>
        <time>2022-06-09T15:33:07Z</time>
      </trkpt>
      <trkpt lat="46.14372" lon="6.71391">
        <ele>1626</ele>
        <time>2022-06-09T15:33:19Z</time>
      </trkpt>
      <trkpt lat="46.14386" lon="6.71391">
        <ele>1624</ele>
        <time>2022-06-09T15:33:22Z</time>
      </trkpt>
      <trkpt lat="46.14405" lon="6.71378">
        <ele>1624</ele>
        <time>2022-06-09T15:33:27Z</time>
      </trkpt>
      <trkpt lat="46.14418" lon="6.71356">
        <ele>1623</ele>
        <time>2022-06-09T15:33:32Z</time>
      </trkpt>
      <trkpt lat="46.14434" lon="6.7135">
        <ele>1621</ele>
        <time>2022-06-09T15:33:35Z</time>
      </trkpt>
      <trkpt lat="46.14442" lon="6.71354">
        <ele>1619</ele>
        <time>2022-06-09T15:33:37Z</time>
      </trkpt>
      <trkpt lat="46.14451" lon="6.71364">
        <ele>1618</ele>
        <time>2022-06-09T15:33:40Z</time>
      </trkpt>
      <trkpt lat="46.14465" lon="6.71363">
        <ele>1615</ele>
        <time>2022-06-09T15:33:43Z</time>
      </trkpt>
      <trkpt lat="46.14476" lon="6.71352">
        <ele>1613</ele>
        <time>2022-06-09T15:33:47Z</time>
      </trkpt>
      <trkpt lat="46.14486" lon="6.71351">
        <ele>1611</ele>
        <time>2022-06-09T15:33:49Z</time>
      </trkpt>
      <trkpt lat="46.14508" lon="6.71323">
        <ele>1606</ele>
        <time>2022-06-09T15:33:56Z</time>
      </trkpt>
      <trkpt lat="46.14523" lon="6.7131">
        <ele>1605</ele>
        <time>2022-06-09T15:34:00Z</time>
      </trkpt>
      <trkpt lat="46.1454" lon="6.71302">
        <ele>1602</ele>
        <time>2022-06-09T15:34:04Z</time>
      </trkpt>
      <trkpt lat="46.14583" lon="6.71323">
        <ele>1598</ele>
        <time>2022-06-09T15:34:15Z</time>
      </trkpt>
      <trkpt lat="46.14593" lon="6.71324">
        <ele>1597</ele>
        <time>2022-06-09T15:34:17Z</time>
      </trkpt>
      <trkpt lat="46.14632" lon="6.71312">
        <ele>1594</ele>
        <time>2022-06-09T15:34:26Z</time>
      </trkpt>
      <trkpt lat="46.14651" lon="6.71302">
        <ele>1591</ele>
        <time>2022-06-09T15:34:31Z</time>
      </trkpt>
      <trkpt lat="46.14675" lon="6.71283">
        <ele>1586</ele>
        <time>2022-06-09T15:34:37Z</time>
      </trkpt>
      <trkpt lat="46.14683" lon="6.7128">
        <ele>1584</ele>
        <time>2022-06-09T15:34:39Z</time>
      </trkpt>
      <trkpt lat="46.14701" lon="6.7129">
        <ele>1582</ele>
        <time>2022-06-09T15:34:44Z</time>
      </trkpt>
      <trkpt lat="46.14707" lon="6.71297">
        <ele>1582</ele>
        <time>2022-06-09T15:34:46Z</time>
      </trkpt>
      <trkpt lat="46.14715" lon="6.71301">
        <ele>1582</ele>
        <time>2022-06-09T15:34:48Z</time>
      </trkpt>
      <trkpt lat="46.14731" lon="6.71304">
        <ele>1580</ele>
        <time>2022-06-09T15:34:51Z</time>
      </trkpt>
      <trkpt lat="46.1478" lon="6.71287">
        <ele>1569</ele>
        <time>2022-06-09T15:35:03Z</time>
      </trkpt>
      <trkpt lat="46.14847" lon="6.71285">
        <ele>1564</ele>
        <time>2022-06-09T15:35:19Z</time>
      </trkpt>
      <trkpt lat="46.14904" lon="6.71254">
        <ele>1554</ele>
        <time>2022-06-09T15:35:33Z</time>
      </trkpt>
      <trkpt lat="46.14947" lon="6.71223">
        <ele>1545</ele>
        <time>2022-06-09T15:35:44Z</time>
      </trkpt>
      <trkpt lat="46.1499" lon="6.71199">
        <ele>1542</ele>
        <time>2022-06-09T15:35:55Z</time>
      </trkpt>
      <trkpt lat="46.15063" lon="6.71138">
        <ele>1533</ele>
        <time>2022-06-09T15:36:15Z</time>
      </trkpt>
      <trkpt lat="46.15091" lon="6.7113">
        <ele>1534</ele>
        <time>2022-06-09T15:36:21Z</time>
      </trkpt>
      <trkpt lat="46.15165" lon="6.71127">
        <ele>1530</ele>
        <time>2022-06-09T15:36:39Z</time>
      </trkpt>
      <trkpt lat="46.15206" lon="6.71132">
        <ele>1524</ele>
        <time>2022-06-09T15:36:48Z</time>
      </trkpt>
      <trkpt lat="46.15234" lon="6.71141">
        <ele>1521</ele>
        <time>2022-06-09T15:36:55Z</time>
      </trkpt>
      <trkpt lat="46.15239" lon="6.71139">
        <ele>1520</ele>
        <time>2022-06-09T15:36:56Z</time>
      </trkpt>
      <trkpt lat="46.15276" lon="6.71139">
        <ele>1516</ele>
        <time>2022-06-09T15:37:05Z</time>
      </trkpt>
      <trkpt lat="46.15305" lon="6.71125">
        <ele>1513</ele>
        <time>2022-06-09T15:37:12Z</time>
      </trkpt>
      <trkpt lat="46.15319" lon="6.71122">
        <ele>1512</ele>
        <time>2022-06-09T15:37:15Z</time>
      </trkpt>
      <trkpt lat="46.15352" lon="6.71127">
        <ele>1507</ele>
        <time>2022-06-09T15:37:23Z</time>
      </trkpt>
      <trkpt lat="46.15368" lon="6.71138">
        <ele>1504</ele>
        <time>2022-06-09T15:37:27Z</time>
      </trkpt>
      <trkpt lat="46.1539" lon="6.71141">
        <ele>1500</ele>
        <time>2022-06-09T15:37:32Z</time>
      </trkpt>
      <trkpt lat="46.15403" lon="6.71164">
        <ele>1497</ele>
        <time>2022-06-09T15:37:37Z</time>
      </trkpt>
      <trkpt lat="46.15409" lon="6.712">
        <ele>1492</ele>
        <time>2022-06-09T15:37:43Z</time>
      </trkpt>
      <trkpt lat="46.15404" lon="6.71236">
        <ele>1489</ele>
        <time>2022-06-09T15:37:49Z</time>
      </trkpt>
      <trkpt lat="46.15388" lon="6.71281">
        <ele>1488</ele>
        <time>2022-06-09T15:37:57Z</time>
      </trkpt>
      <trkpt lat="46.15389" lon="6.71295">
        <ele>1486</ele>
        <time>2022-06-09T15:37:59Z</time>
      </trkpt>
      <trkpt lat="46.15395" lon="6.71303">
        <ele>1484</ele>
        <time>2022-06-09T15:38:01Z</time>
      </trkpt>
      <trkpt lat="46.15399" lon="6.71304">
        <ele>1483</ele>
        <time>2022-06-09T15:38:02Z</time>
      </trkpt>
      <trkpt lat="46.1541" lon="6.71299">
        <ele>1482</ele>
        <time>2022-06-09T15:38:05Z</time>
      </trkpt>
      <trkpt lat="46.15446" lon="6.7127">
        <ele>1478</ele>
        <time>2022-06-09T15:38:15Z</time>
      </trkpt>
      <trkpt lat="46.15478" lon="6.71258">
        <ele>1473</ele>
        <time>2022-06-09T15:38:22Z</time>
      </trkpt>
      <trkpt lat="46.15488" lon="6.7125">
        <ele>1470</ele>
        <time>2022-06-09T15:38:25Z</time>
      </trkpt>
      <trkpt lat="46.15556" lon="6.71156">
        <ele>1457</ele>
        <time>2022-06-09T15:38:47Z</time>
      </trkpt>
      <trkpt lat="46.15572" lon="6.7114">
        <ele>1454</ele>
        <time>2022-06-09T15:38:52Z</time>
      </trkpt>
      <trkpt lat="46.15589" lon="6.71133">
        <ele>1450</ele>
        <time>2022-06-09T15:38:56Z</time>
      </trkpt>
      <trkpt lat="46.15634" lon="6.71131">
        <ele>1440</ele>
        <time>2022-06-09T15:39:06Z</time>
      </trkpt>
      <trkpt lat="46.1565" lon="6.71128">
        <ele>1437</ele>
        <time>2022-06-09T15:39:10Z</time>
      </trkpt>
      <trkpt lat="46.15668" lon="6.71114">
        <ele>1433</ele>
        <time>2022-06-09T15:39:15Z</time>
      </trkpt>
      <trkpt lat="46.15687" lon="6.71085">
        <ele>1432</ele>
        <time>2022-06-09T15:39:21Z</time>
      </trkpt>
      <trkpt lat="46.15698" lon="6.71076">
        <ele>1431</ele>
        <time>2022-06-09T15:39:24Z</time>
      </trkpt>
      <trkpt lat="46.15723" lon="6.71072">
        <ele>1429</ele>
        <time>2022-06-09T15:39:30Z</time>
      </trkpt>
      <trkpt lat="46.15726" lon="6.71085">
        <ele>1429</ele>
        <time>2022-06-09T15:39:32Z</time>
      </trkpt>
      <trkpt lat="46.15723" lon="6.71129">
        <ele>1427</ele>
        <time>2022-06-09T15:39:39Z</time>
      </trkpt>
      <trkpt lat="46.15722" lon="6.71207">
        <ele>1425</ele>
        <time>2022-06-09T15:39:52Z</time>
      </trkpt>
      <trkpt lat="46.15747" lon="6.71352">
        <ele>1427</ele>
        <time>2022-06-09T15:40:16Z</time>
      </trkpt>
      <trkpt lat="46.15751" lon="6.71395">
        <ele>1427</ele>
        <time>2022-06-09T15:40:23Z</time>
      </trkpt>
      <trkpt lat="46.15735" lon="6.71422">
        <ele>1429</ele>
        <time>2022-06-09T15:40:29Z</time>
      </trkpt>
      <trkpt lat="46.15718" lon="6.7143">
        <ele>1432</ele>
        <time>2022-06-09T15:40:33Z</time>
      </trkpt>
      <trkpt lat="46.15715" lon="6.71453">
        <ele>1433</ele>
        <time>2022-06-09T15:40:37Z</time>
      </trkpt>
      <trkpt lat="46.15709" lon="6.71467">
        <ele>1435</ele>
        <time>2022-06-09T15:40:40Z</time>
      </trkpt>
      <trkpt lat="46.15711" lon="6.71476">
        <ele>1435</ele>
        <time>2022-06-09T15:40:41Z</time>
      </trkpt>
      <trkpt lat="46.15717" lon="6.71483">
        <ele>1434</ele>
        <time>2022-06-09T15:40:43Z</time>
      </trkpt>
      <trkpt lat="46.15753" lon="6.715">
        <ele>1427</ele>
        <time>2022-06-09T15:40:52Z</time>
      </trkpt>
      <trkpt lat="46.15792" lon="6.71509">
        <ele>1425</ele>
        <time>2022-06-09T15:41:01Z</time>
      </trkpt>
      <trkpt lat="46.15859" lon="6.71494">
        <ele>1410</ele>
        <time>2022-06-09T15:41:17Z</time>
      </trkpt>
      <trkpt lat="46.1588" lon="6.715">
        <ele>1408</ele>
        <time>2022-06-09T15:41:22Z</time>
      </trkpt>
      <trkpt lat="46.15889" lon="6.71505">
        <ele>1409</ele>
        <time>2022-06-09T15:41:24Z</time>
      </trkpt>
      <trkpt lat="46.15897" lon="6.71505">
        <ele>1408</ele>
        <time>2022-06-09T15:41:26Z</time>
      </trkpt>
      <trkpt lat="46.15937" lon="6.7152">
        <ele>1400</ele>
        <time>2022-06-09T15:41:36Z</time>
      </trkpt>
      <trkpt lat="46.15951" lon="6.71528">
        <ele>1395</ele>
        <time>2022-06-09T15:41:39Z</time>
      </trkpt>
      <trkpt lat="46.1597" lon="6.71549">
        <ele>1390</ele>
        <time>2022-06-09T15:41:45Z</time>
      </trkpt>
      <trkpt lat="46.15972" lon="6.71545">
        <ele>1388</ele>
        <time>2022-06-09T15:41:45Z</time>
      </trkpt>
      <trkpt lat="46.15969" lon="6.71528">
        <ele>1386</ele>
        <time>2022-06-09T15:41:48Z</time>
      </trkpt>
      <trkpt lat="46.15928" lon="6.71404">
        <ele>1372</ele>
        <time>2022-06-09T15:42:11Z</time>
      </trkpt>
      <trkpt lat="46.15902" lon="6.71361">
        <ele>1384</ele>
        <time>2022-06-09T15:42:20Z</time>
      </trkpt>
      <trkpt lat="46.15911" lon="6.71358">
        <ele>1380</ele>
        <time>2022-06-09T15:42:22Z</time>
      </trkpt>
      <trkpt lat="46.15954" lon="6.71371">
        <ele>1363</ele>
        <time>2022-06-09T15:42:32Z</time>
      </trkpt>
      <trkpt lat="46.15983" lon="6.71395">
        <ele>1351</ele>
        <time>2022-06-09T15:42:40Z</time>
      </trkpt>
      <trkpt lat="46.15987" lon="6.7139">
        <ele>1349</ele>
        <time>2022-06-09T15:42:41Z</time>
      </trkpt>
      <trkpt lat="46.15988" lon="6.71373">
        <ele>1349</ele>
        <time>2022-06-09T15:42:44Z</time>
      </trkpt>
      <trkpt lat="46.15984" lon="6.71333">
        <ele>1350</ele>
        <time>2022-06-09T15:42:51Z</time>
      </trkpt>
      <trkpt lat="46.15991" lon="6.71326">
        <ele>1349</ele>
        <time>2022-06-09T15:42:53Z</time>
      </trkpt>
      <trkpt lat="46.16013" lon="6.71352">
        <ele>1337</ele>
        <time>2022-06-09T15:42:59Z</time>
      </trkpt>
      <trkpt lat="46.16028" lon="6.71378">
        <ele>1329</ele>
        <time>2022-06-09T15:43:05Z</time>
      </trkpt>
      <trkpt lat="46.16036" lon="6.71406">
        <ele>1324</ele>
        <time>2022-06-09T15:43:10Z</time>
      </trkpt>
      <trkpt lat="46.16033" lon="6.71405">
        <ele>1326</ele>
        <time>2022-06-09T15:43:10Z</time>
      </trkpt>
      <trkpt lat="46.16037" lon="6.71439">
        <ele>1327</ele>
        <time>2022-06-09T15:43:16Z</time>
      </trkpt>
      <trkpt lat="46.16049" lon="6.71441">
        <ele>1320</ele>
        <time>2022-06-09T15:43:19Z</time>
      </trkpt>
      <trkpt lat="46.16058" lon="6.71452">
        <ele>1316</ele>
        <time>2022-06-09T15:43:21Z</time>
      </trkpt>
      <trkpt lat="46.1606" lon="6.71451">
        <ele>1314</ele>
        <time>2022-06-09T15:43:22Z</time>
      </trkpt>
      <trkpt lat="46.16069" lon="6.71376">
        <ele>1306</ele>
        <time>2022-06-09T15:43:34Z</time>
      </trkpt>
      <trkpt lat="46.16061" lon="6.71346">
        <ele>1312</ele>
        <time>2022-06-09T15:43:39Z</time>
      </trkpt>
      <trkpt lat="46.16073" lon="6.71337">
        <ele>1306</ele>
        <time>2022-06-09T15:43:43Z</time>
      </trkpt>
      <trkpt lat="46.16087" lon="6.71315">
        <ele>1304</ele>
        <time>2022-06-09T15:43:47Z</time>
      </trkpt>
      <trkpt lat="46.16112" lon="6.71297">
        <ele>1295</ele>
        <time>2022-06-09T15:43:54Z</time>
      </trkpt>
      <trkpt lat="46.16121" lon="6.71295">
        <ele>1291</ele>
        <time>2022-06-09T15:43:56Z</time>
      </trkpt>
      <trkpt lat="46.16132" lon="6.71284">
        <ele>1288</ele>
        <time>2022-06-09T15:43:59Z</time>
      </trkpt>
      <trkpt lat="46.1614" lon="6.71266">
        <ele>1288</ele>
        <time>2022-06-09T15:44:03Z</time>
      </trkpt>
      <trkpt lat="46.16136" lon="6.71234">
        <ele>1297</ele>
        <time>2022-06-09T15:44:08Z</time>
      </trkpt>
      <trkpt lat="46.16129" lon="6.71206">
        <ele>1305</ele>
        <time>2022-06-09T15:44:13Z</time>
      </trkpt>
      <trkpt lat="46.1613" lon="6.71169">
        <ele>1310</ele>
        <time>2022-06-09T15:44:19Z</time>
      </trkpt>
      <trkpt lat="46.16128" lon="6.71151">
        <ele>1313</ele>
        <time>2022-06-09T15:44:22Z</time>
      </trkpt>
      <trkpt lat="46.16134" lon="6.71118">
        <ele>1314</ele>
        <time>2022-06-09T15:44:27Z</time>
      </trkpt>
      <trkpt lat="46.16164" lon="6.71044">
        <ele>1306</ele>
        <time>2022-06-09T15:44:41Z</time>
      </trkpt>
      <trkpt lat="46.16165" lon="6.70993">
        <ele>1308</ele>
        <time>2022-06-09T15:44:49Z</time>
      </trkpt>
      <trkpt lat="46.16162" lon="6.70959">
        <ele>1306</ele>
        <time>2022-06-09T15:44:55Z</time>
      </trkpt>
      <trkpt lat="46.16149" lon="6.70903">
        <ele>1304</ele>
        <time>2022-06-09T15:45:04Z</time>
      </trkpt>
      <trkpt lat="46.16114" lon="6.70826">
        <ele>1297</ele>
        <time>2022-06-09T15:45:19Z</time>
      </trkpt>
      <trkpt lat="46.16087" lon="6.70785">
        <ele>1299</ele>
        <time>2022-06-09T15:45:28Z</time>
      </trkpt>
      <trkpt lat="46.16085" lon="6.70776">
        <ele>1298</ele>
        <time>2022-06-09T15:45:30Z</time>
      </trkpt>
      <trkpt lat="46.16086" lon="6.70762">
        <ele>1295</ele>
        <time>2022-06-09T15:45:32Z</time>
      </trkpt>
      <trkpt lat="46.16077" lon="6.70736">
        <ele>1294</ele>
        <time>2022-06-09T15:45:37Z</time>
      </trkpt>
      <trkpt lat="46.16051" lon="6.707">
        <ele>1297</ele>
        <time>2022-06-09T15:45:45Z</time>
      </trkpt>
      <trkpt lat="46.1605" lon="6.70702">
        <ele>1298</ele>
        <time>2022-06-09T15:45:46Z</time>
      </trkpt>
      <trkpt lat="46.16051" lon="6.70698">
        <ele>1297</ele>
        <time>2022-06-09T15:45:46Z</time>
      </trkpt>
      <trkpt lat="46.16035" lon="6.70663">
        <ele>1295</ele>
        <time>2022-06-09T15:45:53Z</time>
      </trkpt>
      <trkpt lat="46.16012" lon="6.70619">
        <ele>1291</ele>
        <time>2022-06-09T15:46:02Z</time>
      </trkpt>
      <trkpt lat="46.15977" lon="6.70589">
        <ele>1290</ele>
        <time>2022-06-09T15:46:12Z</time>
      </trkpt>
      <trkpt lat="46.15931" lon="6.7057">
        <ele>1294</ele>
        <time>2022-06-09T15:46:23Z</time>
      </trkpt>
      <trkpt lat="46.1593" lon="6.70563">
        <ele>1293</ele>
        <time>2022-06-09T15:46:24Z</time>
      </trkpt>
      <trkpt lat="46.15938" lon="6.70543">
        <ele>1287</ele>
        <time>2022-06-09T15:46:28Z</time>
      </trkpt>
      <trkpt lat="46.15949" lon="6.70537">
        <ele>1284</ele>
        <time>2022-06-09T15:46:30Z</time>
      </trkpt>
      <trkpt lat="46.15959" lon="6.70527">
        <ele>1281</ele>
        <time>2022-06-09T15:46:33Z</time>
      </trkpt>
      <trkpt lat="46.15964" lon="6.70513">
        <ele>1277</ele>
        <time>2022-06-09T15:46:36Z</time>
      </trkpt>
      <trkpt lat="46.15961" lon="6.70496">
        <ele>1274</ele>
        <time>2022-06-09T15:46:39Z</time>
      </trkpt>
      <trkpt lat="46.15947" lon="6.70459">
        <ele>1271</ele>
        <time>2022-06-09T15:46:46Z</time>
      </trkpt>
      <trkpt lat="46.15947" lon="6.70448">
        <ele>1269</ele>
        <time>2022-06-09T15:46:47Z</time>
      </trkpt>
      <trkpt lat="46.1595" lon="6.70442">
        <ele>1267</ele>
        <time>2022-06-09T15:46:48Z</time>
      </trkpt>
      <trkpt lat="46.1595" lon="6.70411">
        <ele>1263</ele>
        <time>2022-06-09T15:46:53Z</time>
      </trkpt>
      <trkpt lat="46.15953" lon="6.70403">
        <ele>1261</ele>
        <time>2022-06-09T15:46:55Z</time>
      </trkpt>
      <trkpt lat="46.1596" lon="6.70398">
        <ele>1260</ele>
        <time>2022-06-09T15:46:57Z</time>
      </trkpt>
      <trkpt lat="46.16" lon="6.70424">
        <ele>1257</ele>
        <time>2022-06-09T15:47:07Z</time>
      </trkpt>
      <trkpt lat="46.16042" lon="6.70442">
        <ele>1252</ele>
        <time>2022-06-09T15:47:17Z</time>
      </trkpt>
      <trkpt lat="46.16069" lon="6.70463">
        <ele>1250</ele>
        <time>2022-06-09T15:47:24Z</time>
      </trkpt>
      <trkpt lat="46.16125" lon="6.70483">
        <ele>1237</ele>
        <time>2022-06-09T15:47:38Z</time>
      </trkpt>
      <trkpt lat="46.16164" lon="6.70502">
        <ele>1230</ele>
        <time>2022-06-09T15:47:48Z</time>
      </trkpt>
      <trkpt lat="46.16182" lon="6.70521">
        <ele>1227</ele>
        <time>2022-06-09T15:47:53Z</time>
      </trkpt>
      <trkpt lat="46.16234" lon="6.70634">
        <ele>1219</ele>
        <time>2022-06-09T15:48:15Z</time>
      </trkpt>
      <trkpt lat="46.16266" lon="6.70686">
        <ele>1213</ele>
        <time>2022-06-09T15:48:26Z</time>
      </trkpt>
      <trkpt lat="46.16274" lon="6.70692">
        <ele>1211</ele>
        <time>2022-06-09T15:48:28Z</time>
      </trkpt>
      <trkpt lat="46.16298" lon="6.70699">
        <ele>1203</ele>
        <time>2022-06-09T15:48:34Z</time>
      </trkpt>
      <trkpt lat="46.16327" lon="6.70717">
        <ele>1193</ele>
        <time>2022-06-09T15:48:41Z</time>
      </trkpt>
      <trkpt lat="46.16352" lon="6.70745">
        <ele>1184</ele>
        <time>2022-06-09T15:48:49Z</time>
      </trkpt>
      <trkpt lat="46.16368" lon="6.7075">
        <ele>1179</ele>
        <time>2022-06-09T15:48:52Z</time>
      </trkpt>
      <trkpt lat="46.1641" lon="6.70744">
        <ele>1166</ele>
        <time>2022-06-09T15:49:02Z</time>
      </trkpt>
      <trkpt lat="46.16425" lon="6.7074">
        <ele>1165</ele>
        <time>2022-06-09T15:49:06Z</time>
      </trkpt>
      <trkpt lat="46.16439" lon="6.7073">
        <ele>1167</ele>
        <time>2022-06-09T15:49:09Z</time>
      </trkpt>
      <trkpt lat="46.16453" lon="6.70724">
        <ele>1169</ele>
        <time>2022-06-09T15:49:13Z</time>
      </trkpt>
      <trkpt lat="46.16471" lon="6.70721">
        <ele>1171</ele>
        <time>2022-06-09T15:49:17Z</time>
      </trkpt>
      <trkpt lat="46.16487" lon="6.7073">
        <ele>1170</ele>
        <time>2022-06-09T15:49:21Z</time>
      </trkpt>
      <trkpt lat="46.16492" lon="6.70742">
        <ele>1168</ele>
        <time>2022-06-09T15:49:23Z</time>
      </trkpt>
      <trkpt lat="46.16496" lon="6.70765">
        <ele>1165</ele>
        <time>2022-06-09T15:49:27Z</time>
      </trkpt>
      <trkpt lat="46.16499" lon="6.7077">
        <ele>1164</ele>
        <time>2022-06-09T15:49:28Z</time>
      </trkpt>
      <trkpt lat="46.16521" lon="6.70789">
        <ele>1163</ele>
        <time>2022-06-09T15:49:34Z</time>
      </trkpt>
      <trkpt lat="46.16522" lon="6.70795">
        <ele>1162</ele>
        <time>2022-06-09T15:49:35Z</time>
      </trkpt>
      <trkpt lat="46.1652" lon="6.70794">
        <ele>1162</ele>
        <time>2022-06-09T15:49:36Z</time>
      </trkpt>
      <trkpt lat="46.16527" lon="6.70795">
        <ele>1162</ele>
        <time>2022-06-09T15:49:37Z</time>
      </trkpt>
      <trkpt lat="46.16537" lon="6.7079">
        <ele>1163</ele>
        <time>2022-06-09T15:49:40Z</time>
      </trkpt>
      <trkpt lat="46.16574" lon="6.70785">
        <ele>1163</ele>
        <time>2022-06-09T15:49:48Z</time>
      </trkpt>
      <trkpt lat="46.16609" lon="6.70796">
        <ele>1157</ele>
        <time>2022-06-09T15:49:57Z</time>
      </trkpt>
      <trkpt lat="46.16627" lon="6.70794">
        <ele>1154</ele>
        <time>2022-06-09T15:50:01Z</time>
      </trkpt>
      <trkpt lat="46.16677" lon="6.7078">
        <ele>1147</ele>
        <time>2022-06-09T15:50:13Z</time>
      </trkpt>
      <trkpt lat="46.16696" lon="6.70771">
        <ele>1144</ele>
        <time>2022-06-09T15:50:18Z</time>
      </trkpt>
      <trkpt lat="46.16732" lon="6.70744">
        <ele>1141</ele>
        <time>2022-06-09T15:50:27Z</time>
      </trkpt>
      <trkpt lat="46.1675" lon="6.70724">
        <ele>1142</ele>
        <time>2022-06-09T15:50:32Z</time>
      </trkpt>
      <trkpt lat="46.16762" lon="6.70699">
        <ele>1148</ele>
        <time>2022-06-09T15:50:37Z</time>
      </trkpt>
      <trkpt lat="46.16765" lon="6.70697">
        <ele>1148</ele>
        <time>2022-06-09T15:50:38Z</time>
      </trkpt>
      <trkpt lat="46.16833" lon="6.70692">
        <ele>1137</ele>
        <time>2022-06-09T15:50:54Z</time>
      </trkpt>
      <trkpt lat="46.1686" lon="6.70676">
        <ele>1137</ele>
        <time>2022-06-09T15:51:01Z</time>
      </trkpt>
      <trkpt lat="46.16873" lon="6.70665">
        <ele>1138</ele>
        <time>2022-06-09T15:51:04Z</time>
      </trkpt>
      <trkpt lat="46.16882" lon="6.7066">
        <ele>1139</ele>
        <time>2022-06-09T15:51:07Z</time>
      </trkpt>
      <trkpt lat="46.16893" lon="6.70658">
        <ele>1137</ele>
        <time>2022-06-09T15:51:09Z</time>
      </trkpt>
      <trkpt lat="46.16944" lon="6.70663">
        <ele>1126</ele>
        <time>2022-06-09T15:51:21Z</time>
      </trkpt>
      <trkpt lat="46.1698" lon="6.70661">
        <ele>1125</ele>
        <time>2022-06-09T15:51:30Z</time>
      </trkpt>
      <trkpt lat="46.17064" lon="6.70648">
        <ele>1125</ele>
        <time>2022-06-09T15:51:49Z</time>
      </trkpt>
      <trkpt lat="46.17099" lon="6.70648">
        <ele>1119</ele>
        <time>2022-06-09T15:51:57Z</time>
      </trkpt>
      <trkpt lat="46.17141" lon="6.70632">
        <ele>1111</ele>
        <time>2022-06-09T15:52:08Z</time>
      </trkpt>
      <trkpt lat="46.17183" lon="6.70607">
        <ele>1105</ele>
        <time>2022-06-09T15:52:18Z</time>
      </trkpt>
      <trkpt lat="46.17198" lon="6.70603">
        <ele>1101</ele>
        <time>2022-06-09T15:52:22Z</time>
      </trkpt>
      <trkpt lat="46.17267" lon="6.70563">
        <ele>1091</ele>
        <time>2022-06-09T15:52:39Z</time>
      </trkpt>
      <trkpt lat="46.17311" lon="6.70543">
        <ele>1093</ele>
        <time>2022-06-09T15:52:50Z</time>
      </trkpt>
      <trkpt lat="46.17329" lon="6.70531">
        <ele>1095</ele>
        <time>2022-06-09T15:52:55Z</time>
      </trkpt>
      <trkpt lat="46.17383" lon="6.70486">
        <ele>1096</ele>
        <time>2022-06-09T15:53:09Z</time>
      </trkpt>
      <trkpt lat="46.17496" lon="6.70406">
        <ele>1090</ele>
        <time>2022-06-09T15:53:38Z</time>
      </trkpt>
      <trkpt lat="46.17556" lon="6.70351">
        <ele>1080</ele>
        <time>2022-06-09T15:53:55Z</time>
      </trkpt>
      <trkpt lat="46.17573" lon="6.70342">
        <ele>1075</ele>
        <time>2022-06-09T15:53:59Z</time>
      </trkpt>
      <trkpt lat="46.17625" lon="6.70325">
        <ele>1055</ele>
        <time>2022-06-09T15:54:12Z</time>
      </trkpt>
      <trkpt lat="46.17641" lon="6.70317">
        <ele>1050</ele>
        <time>2022-06-09T15:54:16Z</time>
      </trkpt>
      <trkpt lat="46.17665" lon="6.70295">
        <ele>1046</ele>
        <time>2022-06-09T15:54:22Z</time>
      </trkpt>
      <trkpt lat="46.17713" lon="6.70268">
        <ele>1038</ele>
        <time>2022-06-09T15:54:34Z</time>
      </trkpt>
      <trkpt lat="46.1779" lon="6.70207">
        <ele>1026</ele>
        <time>2022-06-09T15:54:55Z</time>
      </trkpt>
      <trkpt lat="46.17836" lon="6.70183">
        <ele>1013</ele>
        <time>2022-06-09T15:55:06Z</time>
      </trkpt>
      <trkpt lat="46.17871" lon="6.70154">
        <ele>1009</ele>
        <time>2022-06-09T15:55:16Z</time>
      </trkpt>
      <trkpt lat="46.17879" lon="6.70151">
        <ele>1007</ele>
        <time>2022-06-09T15:55:18Z</time>
      </trkpt>
      <trkpt lat="46.17898" lon="6.70159">
        <ele>1000</ele>
        <time>2022-06-09T15:55:22Z</time>
      </trkpt>
      <trkpt lat="46.17918" lon="6.70159">
        <ele>995</ele>
        <time>2022-06-09T15:55:27Z</time>
      </trkpt>
      <trkpt lat="46.17934" lon="6.70156">
        <ele>993</ele>
        <time>2022-06-09T15:55:31Z</time>
      </trkpt>
      <trkpt lat="46.17949" lon="6.70147">
        <ele>992</ele>
        <time>2022-06-09T15:55:34Z</time>
      </trkpt>
      <trkpt lat="46.17993" lon="6.70104">
        <ele>988</ele>
        <time>2022-06-09T15:55:47Z</time>
      </trkpt>
      <trkpt lat="46.18011" lon="6.70077">
        <ele>987</ele>
        <time>2022-06-09T15:55:53Z</time>
      </trkpt>
      <trkpt lat="46.18035" lon="6.70053">
        <ele>987</ele>
        <time>2022-06-09T15:56:00Z</time>
      </trkpt>
      <trkpt lat="46.18033" lon="6.70052">
        <ele>987</ele>
        <time>2022-06-09T15:56:00Z</time>
      </trkpt>
      <trkpt lat="46.18038" lon="6.70056">
        <ele>986</ele>
        <time>2022-06-09T15:56:02Z</time>
      </trkpt>
      <trkpt lat="46.18045" lon="6.70068">
        <ele>985</ele>
        <time>2022-06-09T15:56:04Z</time>
      </trkpt>
      <trkpt lat="46.1806" lon="6.70071">
        <ele>983</ele>
        <time>2022-06-09T15:56:08Z</time>
      </trkpt>
      <trkpt lat="46.18074" lon="6.70084">
        <ele>982</ele>
        <time>2022-06-09T15:56:12Z</time>
      </trkpt>
      <trkpt lat="46.18104" lon="6.7013">
        <ele>979</ele>
        <time>2022-06-09T15:56:22Z</time>
      </trkpt>
      <trkpt lat="46.18137" lon="6.70175">
        <ele>978</ele>
        <time>2022-06-09T15:56:32Z</time>
      </trkpt>
      <trkpt lat="46.18139" lon="6.70191">
        <ele>978</ele>
        <time>2022-06-09T15:56:35Z</time>
      </trkpt>
      <trkpt lat="46.18151" lon="6.70205">
        <ele>977</ele>
        <time>2022-06-09T15:56:39Z</time>
      </trkpt>
      <trkpt lat="46.18168" lon="6.70236">
        <ele>976</ele>
        <time>2022-06-09T15:56:45Z</time>
      </trkpt>
      <trkpt lat="46.18178" lon="6.70247">
        <ele>976</ele>
        <time>2022-06-09T15:56:48Z</time>
      </trkpt>
      <trkpt lat="46.18184" lon="6.70262">
        <ele>975</ele>
        <time>2022-06-09T15:56:51Z</time>
      </trkpt>
      <trkpt lat="46.18237" lon="6.7034">
        <ele>973</ele>
        <time>2022-06-09T15:57:08Z</time>
      </trkpt>
      <trkpt lat="46.18247" lon="6.70358">
        <ele>971</ele>
        <time>2022-06-09T15:57:12Z</time>
      </trkpt>
      <trkpt lat="46.1828" lon="6.70354">
        <ele>969</ele>
        <time>2022-06-09T15:57:20Z</time>
      </trkpt>
      <trkpt lat="46.18314" lon="6.70328">
        <ele>969</ele>
        <time>2022-06-09T15:57:29Z</time>
      </trkpt>
      <trkpt lat="46.1833" lon="6.70307">
        <ele>969</ele>
        <time>2022-06-09T15:57:34Z</time>
      </trkpt>
      <trkpt lat="46.18334" lon="6.70309">
        <ele>969</ele>
        <time>2022-06-09T15:57:35Z</time>
      </trkpt>
      <trkpt lat="46.18345" lon="6.7033">
        <ele>966</ele>
        <time>2022-06-09T15:57:39Z</time>
      </trkpt>
      <trkpt lat="46.18361" lon="6.70337">
        <ele>963</ele>
        <time>2022-06-09T15:57:43Z</time>
      </trkpt>
      <trkpt lat="46.1836" lon="6.70339">
        <ele>963</ele>
        <time>2022-06-09T15:57:43Z</time>
      </trkpt>
      <trkpt lat="46.1837" lon="6.70359">
        <ele>958</ele>
        <time>2022-06-09T15:57:47Z</time>
      </trkpt>
      <trkpt lat="46.18456" lon="6.70526">
        <ele>966</ele>
        <time>2022-06-09T15:58:21Z</time>
      </trkpt>
      <trkpt lat="46.18473" lon="6.70538">
        <ele>971</ele>
        <time>2022-06-09T15:58:26Z</time>
      </trkpt>
      <trkpt lat="46.18508" lon="6.70514">
        <ele>973</ele>
        <time>2022-06-09T15:58:35Z</time>
      </trkpt>
      <trkpt lat="46.18577" lon="6.70447">
        <ele>969</ele>
        <time>2022-06-09T15:58:54Z</time>
      </trkpt>
      <trkpt lat="46.18653" lon="6.70392">
        <ele>970</ele>
        <time>2022-06-09T15:59:14Z</time>
      </trkpt>
      <trkpt lat="46.18714" lon="6.70336">
        <ele>971</ele>
        <time>2022-06-09T15:59:31Z</time>
      </trkpt>
      <trkpt lat="46.18834" lon="6.7021">
        <ele>975</ele>
        <time>2022-06-09T16:00:05Z</time>
      </trkpt>
      <trkpt lat="46.1889" lon="6.70139">
        <ele>972</ele>
        <time>2022-06-09T16:00:23Z</time>
      </trkpt>
      <trkpt lat="46.18955" lon="6.70096">
        <ele>970</ele>
        <time>2022-06-09T16:00:39Z</time>
      </trkpt>
      <trkpt lat="46.19026" lon="6.70082">
        <ele>970</ele>
        <time>2022-06-09T16:00:56Z</time>
      </trkpt>
      <trkpt lat="46.19047" lon="6.7007">
        <ele>970</ele>
        <time>2022-06-09T16:01:01Z</time>
      </trkpt>
      <trkpt lat="46.19113" lon="6.70001">
        <ele>965</ele>
        <time>2022-06-09T16:01:20Z</time>
      </trkpt>
      <trkpt lat="46.19216" lon="6.69886">
        <ele>960</ele>
        <time>2022-06-09T16:01:51Z</time>
      </trkpt>
      <trkpt lat="46.19361" lon="6.6974">
        <ele>964</ele>
        <time>2022-06-09T16:02:32Z</time>
      </trkpt>
      <trkpt lat="46.19486" lon="6.69601">
        <ele>954</ele>
        <time>2022-06-09T16:03:09Z</time>
      </trkpt>
      <trkpt lat="46.19564" lon="6.69531">
        <ele>953</ele>
        <time>2022-06-09T16:03:30Z</time>
      </trkpt>
      <trkpt lat="46.19685" lon="6.69444">
        <ele>947</ele>
        <time>2022-06-09T16:04:02Z</time>
      </trkpt>
      <trkpt lat="46.19712" lon="6.69422">
        <ele>945</ele>
        <time>2022-06-09T16:04:09Z</time>
      </trkpt>
      <trkpt lat="46.19727" lon="6.69424">
        <ele>945</ele>
        <time>2022-06-09T16:04:13Z</time>
      </trkpt>
      <trkpt lat="46.19809" lon="6.69422">
        <ele>944</ele>
        <time>2022-06-09T16:04:32Z</time>
      </trkpt>
      <trkpt lat="46.19826" lon="6.69416">
        <ele>944</ele>
        <time>2022-06-09T16:04:36Z</time>
      </trkpt>
      <trkpt lat="46.19864" lon="6.69396">
        <ele>942</ele>
        <time>2022-06-09T16:04:45Z</time>
      </trkpt>
      <trkpt lat="46.19866" lon="6.69391">
        <ele>942</ele>
        <time>2022-06-09T16:04:46Z</time>
      </trkpt>
      <trkpt lat="46.19859" lon="6.69351">
        <ele>942</ele>
        <time>2022-06-09T16:04:53Z</time>
      </trkpt>
      <trkpt lat="46.1985" lon="6.69322">
        <ele>941</ele>
        <time>2022-06-09T16:04:58Z</time>
      </trkpt>
      <trkpt lat="46.19848" lon="6.69321">
        <ele>941</ele>
        <time>2022-06-09T16:04:59Z</time>
      </trkpt>
      <trkpt lat="46.19857" lon="6.69344">
        <ele>942</ele>
        <time>2022-06-09T16:05:03Z</time>
      </trkpt>
      <trkpt lat="46.19855" lon="6.69362">
        <ele>942</ele>
        <time>2022-06-09T16:05:06Z</time>
      </trkpt>
      <trkpt lat="46.19854" lon="6.6936">
        <ele>942</ele>
        <time>2022-06-09T16:05:06Z</time>
      </trkpt>
      <trkpt lat="46.19866" lon="6.69363">
        <ele>942</ele>
        <time>2022-06-09T16:05:09Z</time>
      </trkpt>
      <trkpt lat="46.19861" lon="6.6936">
        <ele>942</ele>
        <time>2022-06-09T16:05:10Z</time>
      </trkpt>
      <trkpt lat="46.19854" lon="6.69369">
        <ele>942</ele>
        <time>2022-06-09T16:05:13Z</time>
      </trkpt>
      <trkpt lat="46.19858" lon="6.69357">
        <ele>942</ele>
        <time>2022-06-09T16:05:15Z</time>
      </trkpt>
      <trkpt lat="46.19853" lon="6.6933">
        <ele>941</ele>
        <time>2022-06-09T16:05:19Z</time>
      </trkpt>
      <trkpt lat="46.19823" lon="6.69266">
        <ele>938</ele>
        <time>2022-06-09T16:05:32Z</time>
      </trkpt>
      <trkpt lat="46.19825" lon="6.69268">
        <ele>938</ele>
        <time>2022-06-09T16:05:32Z</time>
      </trkpt>
      <trkpt lat="46.19822" lon="6.69261">
        <ele>938</ele>
        <time>2022-06-09T16:05:34Z</time>
      </trkpt>
      <trkpt lat="46.19825" lon="6.6926">
        <ele>938</ele>
        <time>2022-06-09T16:05:34Z</time>
      </trkpt>
      <trkpt lat="46.1982" lon="6.69269">
        <ele>938</ele>
        <time>2022-06-09T16:05:36Z</time>
      </trkpt>
      <trkpt lat="46.19817" lon="6.6927">
        <ele>937</ele>
        <time>2022-06-09T16:05:37Z</time>
      </trkpt>
      <trkpt lat="46.19818" lon="6.69268">
        <ele>937</ele>
        <time>2022-06-09T16:05:37Z</time>
      </trkpt>
    </trkseg>
  </trk>
</gpx>